Observation data for Throckmorton on 11/07/2019      Previous  Date       Current Mesonet Observations  Soil Data  Daily Summary Page  Observations in Plain Language
KTH1 070600Z 14003KT 17/17 A301 RMK A01 T01660166  RH  100%=      5-min Rain = 0
KTH1 070601Z 17002KT 17/17 A301 RMK A01 T01650165  RH  100%=      5-min Rain = 0.01
KTH1 070602Z 22001KT 17/17 A301 RMK A01 T01650165  RH  100%=      5-min Rain = 0
KTH1 070603Z 23001KT 17/17 A301 RMK A01 T01650165  RH  100%=      5-min Rain = 0
KTH1 070604Z 24001KT 17/17 A301 RMK A01 T01650165  RH  100%=      5-min Rain = 0
KTH1 070605Z 24001KT 17/17 A301 RMK A01 T01650165  RH  100%=      5-min Rain = 0
KTH1 070606Z 24002KT 17/17 A301 RMK A01 T01650165  RH  100%=      5-min Rain = 0
KTH1 070607Z 23001KT 17/17 A301 RMK A01 T01650165  RH  100%=      5-min Rain = 0
KTH1 070608Z 22002KT 16/16 A301 RMK A01 T01640164  RH  100%=      5-min Rain = 0
KTH1 070609Z 21002KT 16/16 A301 RMK A01 T01640164  RH  100%=      5-min Rain = 0
KTH1 070610Z 20002KT 16/16 A301 RMK A01 T01640164  RH  100%=      5-min Rain = 0
KTH1 070611Z 18001KT 16/16 A301 RMK A01 T01640164  RH  100%=      5-min Rain = 0
KTH1 070612Z 17001KT 16/16 A301 RMK A01 T01640164  RH  100%=      5-min Rain = 0.01
KTH1 070613Z 17002KT 16/16 A301 RMK A01 T01640164  RH  100%=      5-min Rain = 0
KTH1 070614Z 17002KT 16/16 A301 RMK A01 T01630163  RH  100%=      5-min Rain = 0
KTH1 070615Z 18003KT 16/16 A301 RMK A01 T01640164  RH  100%=      5-min Rain = 0.01
KTH1 070616Z 18004KT 16/16 A301 RMK A01 T01630163  RH  100%=      5-min Rain = 0
KTH1 070617Z 18004KT 16/16 A301 RMK A01 T01640164  RH  100%=      5-min Rain = 0.01
KTH1 070618Z 18004KT 16/16 A301 RMK A01 T01630164  RH  100%=      5-min Rain = 0.01
KTH1 070619Z 17003KT 16/16 A301 RMK A01 T01630163  RH  100%=      5-min Rain = 0
KTH1 070620Z 17003KT 16/16 A301 RMK A01 T01640164  RH  100%=      5-min Rain = 0.01
KTH1 070621Z 16001KT 16/16 A301 RMK A01 T01630164  RH  100%=      5-min Rain = 0
KTH1 070622Z 16002KT 16/16 A301 RMK A01 T01630164  RH  100%=      5-min Rain = 0
KTH1 070623Z 16002KT 16/16 A301 RMK A01 T01630163  RH  100%=      5-min Rain = 0
KTH1 070624Z 16003KT 16/16 A301 RMK A01 T01630163  RH  100%=      5-min Rain = 0
KTH1 070625Z 17002KT 16/16 A301 RMK A01 T01630163  RH  100%=      5-min Rain = 0.01
KTH1 070626Z 18003KT 16/16 A301 RMK A01 T01630163  RH  100%=      5-min Rain = 0
KTH1 070627Z 18003KT 16/16 A3011 RMK A01 T01630163  RH  100%=      5-min Rain = 0
KTH1 070628Z 18003KT 16/16 A3011 RMK A01 T01630163  RH  100%=      5-min Rain = 0
KTH1 070629Z 18003KT 16/16 A3011 RMK A01 T01630163  RH  100%=      5-min Rain = 0
KTH1 070630Z 17004KT 16/16 A3011 RMK A01 T01630163  RH  100%=      5-min Rain = 0
KTH1 070631Z 17004KT 16/16 A3011 RMK A01 T01630163  RH  100%=      5-min Rain = 0.01
KTH1 070632Z 17004KT 16/16 A3011 RMK A01 T01630163  RH  100%=      5-min Rain = 0
KTH1 070633Z 17004KT 16/16 A3011 RMK A01 T01630163  RH  100%=      5-min Rain = 0
KTH1 070634Z 16004KT 16/16 A3011 RMK A01 T01630163  RH  100%=      5-min Rain = 0
KTH1 070635Z 16004KT 16/16 A3011 RMK A01 T01620163  RH  100%=      5-min Rain = 0
KTH1 070636Z 16004KT 16/16 A3011 RMK A01 T01620163  RH  100%=      5-min Rain = 0
KTH1 070637Z 17004KT 16/16 A3011 RMK A01 T01630163  RH  100%=      5-min Rain = 0.01
KTH1 070638Z 17004KT 16/16 A3011 RMK A01 T01630163  RH  100%=      5-min Rain = 0
KTH1 070639Z 18004KT 16/16 A3011 RMK A01 T01620162  RH  100%=      5-min Rain = 0
KTH1 070640Z 18004KT 16/16 A3011 RMK A01 T01620162  RH  100%=      5-min Rain = 0
KTH1 070641Z 18004KT 16/16 A3011 RMK A01 T01620162  RH  100%=      5-min Rain = 0
KTH1 070642Z 18004KT 16/16 A3011 RMK A01 T01620162  RH  100%=      5-min Rain = 0.01
KTH1 070643Z 19004KT 16/16 A3011 RMK A01 T01620162  RH  100%=      5-min Rain = 0
KTH1 070644Z 19003KT 16/16 A3011 RMK A01 T01620162  RH  100%=      5-min Rain = 0
KTH1 070645Z 20003KT 16/16 A3011 RMK A01 T01620162  RH  100%=      5-min Rain = 0
KTH1 070646Z 19003KT 16/16 A3011 RMK A01 T01620162  RH  100%=      5-min Rain = 0
KTH1 070647Z 19003KT 16/16 A3011 RMK A01 T01620162  RH  100%=      5-min Rain = 0.01
KTH1 070648Z 19002KT 16/16 A3011 RMK A01 T01620162  RH  100%=      5-min Rain = 0
KTH1 070649Z 20002KT 16/16 A3011 RMK A01 T01620162  RH  100%=      5-min Rain = 0
KTH1 070650Z 19002KT 16/16 A3011 RMK A01 T01620162  RH  100%=      5-min Rain = 0
KTH1 070651Z 20002KT 16/16 A3011 RMK A01 T01610161  RH  100%=      5-min Rain = 0
KTH1 070652Z 20003KT 16/16 A3011 RMK A01 T01610162  RH  100%=      5-min Rain = 0.01
KTH1 070653Z 21003KT 16/16 A3011 RMK A01 T01610161  RH  100%=      5-min Rain = 0
KTH1 070654Z 21002KT 16/16 A3011 RMK A01 T01610161  RH  100%=      5-min Rain = 0
KTH1 070655Z 21002KT 16/16 A3012 RMK A01 T01610161  RH  100%=      5-min Rain = 0
KTH1 070656Z 21003KT 16/16 A3012 RMK A01 T01610161  RH  100%=      5-min Rain = 0.01
KTH1 070657Z 21002KT 16/16 A3012 RMK A01 T01610161  RH  100%=      5-min Rain = 0
KTH1 070658Z 20002KT 16/16 A3011 RMK A01 T01610161  RH  100%=      5-min Rain = 0
KTH1 070659Z 19001KT 16/16 A3011 RMK A01 T01610161  RH  100%=      5-min Rain = 0.01
KTH1 070700Z 19001KT 16/16 A3011 RMK A01 T01610161  RH  100%=      5-min Rain = 0
KTH1 070701Z 20001KT 16/16 A3011 RMK A01 T01610161  RH  100%=      5-min Rain = 0.01
KTH1 070702Z 19001KT 16/16 A3011 RMK A01 T01610161  RH  100%=      5-min Rain = 0
KTH1 070703Z 20001KT 16/16 A3011 RMK A01 T01610161  RH  100%=      5-min Rain = 0
KTH1 070704Z 21000KT 16/16 A3011 RMK A01 T01610161  RH  100%=      5-min Rain = 0.01
KTH1 070705Z 22000KT 16/16 A3011 RMK A01 T01610161  RH  100%=      5-min Rain = 0
KTH1 070706Z 18001KT 16/16 A3011 RMK A01 T01610161  RH  100%=      5-min Rain = 0
KTH1 070707Z 15000KT 16/16 A3011 RMK A01 T01610161  RH  100%=      5-min Rain = 0.01
KTH1 070708Z 00000KT 16/16 A3011 RMK A01 T01610161  RH  100%=      5-min Rain = 0
KTH1 070709Z 00000KT 16/16 A3011 RMK A01 T01610161  RH  100%=      5-min Rain = 0
KTH1 070710Z 00000KT 16/16 A3011 RMK A01 T01610161  RH  100%=      5-min Rain = 0.01
KTH1 070711Z 00000KT 16/16 A3011 RMK A01 T01610161  RH  100%=      5-min Rain = 0
KTH1 070712Z 18001KT 16/16 A3012 RMK A01 T01610161  RH  100%=      5-min Rain = 0
KTH1 070713Z 18001KT 16/16 A3012 RMK A01 T01610161  RH  100%=      5-min Rain = 0.01
KTH1 070714Z 18000KT 16/16 A3012 RMK A01 T01610161  RH  100%=      5-min Rain = 0
KTH1 070715Z 18000KT 16/16 A3012 RMK A01 T01610161  RH  100%=      5-min Rain = 0
KTH1 070716Z 00000KT 16/16 A3012 RMK A01 T01610161  RH  100%=      5-min Rain = 0.01
KTH1 070717Z 00000KT 16/16 A3012 RMK A01 T01610161  RH  100%=      5-min Rain = 0
KTH1 070718Z 00000KT 16/16 A3012 RMK A01 T01610161  RH  100%=      5-min Rain = 0
KTH1 070719Z 00000KT 16/16 A3012 RMK A01 T01600161  RH  100%=      5-min Rain = 0
KTH1 070720Z 00000KT 16/16 A3012 RMK A01 T01600160  RH  100%=      5-min Rain = 0
KTH1 070721Z 00000KT 16/16 A3012 RMK A01 T01600160  RH  100%=      5-min Rain = 0.01
KTH1 070722Z 00000KT 16/16 A3013 RMK A01 T01600160  RH  100%=      5-min Rain = 0
KTH1 070723Z 00000KT 16/16 A3013 RMK A01 T01600160  RH  100%=      5-min Rain = 0
KTH1 070724Z 00000KT 16/16 A3013 RMK A01 T01600160  RH  100%=      5-min Rain = 0
KTH1 070725Z 00000KT 16/16 A3013 RMK A01 T01600160  RH  100%=      5-min Rain = 0
KTH1 070726Z 00000KT 16/16 A3013 RMK A01 T01600160  RH  100%=      5-min Rain = 0
KTH1 070727Z 00000KT 16/16 A3013 RMK A01 T01600160  RH  100%=      5-min Rain = 0.01
KTH1 070728Z 00000KT 16/16 A3013 RMK A01 T01600160  RH  100%=      5-min Rain = 0
KTH1 070729Z 00000KT 16/16 A3013 RMK A01 T01590159  RH  100%=      5-min Rain = 0
KTH1 070730Z 30001KT 16/16 A3013 RMK A01 T01590159  RH  100%=      5-min Rain = 0
KTH1 070731Z 30001KT 16/16 A3013 RMK A01 T01590159  RH  100%=      5-min Rain = 0
KTH1 070732Z 30001KT 16/16 A3013 RMK A01 T01580159  RH  100%=      5-min Rain = 0
KTH1 070733Z 31001KT 16/16 A3013 RMK A01 T01590159  RH  100%=      5-min Rain = 0
KTH1 070734Z 31002KT 16/16 A3013 RMK A01 T01580158  RH  100%=      5-min Rain = 0
KTH1 070735Z 32002KT 16/16 A3013 RMK A01 T01580158  RH  100%=      5-min Rain = 0
KTH1 070736Z 33002KT 16/16 A3013 RMK A01 T01580158  RH  100%=      5-min Rain = 0
KTH1 070737Z 34002KT 16/16 A3013 RMK A01 T01580158  RH  100%=      5-min Rain = 0.01
KTH1 070738Z 35003KT 16/16 A3013 RMK A01 T01580158  RH  100%=      5-min Rain = 0
KTH1 070739Z 36003KT 16/16 A3013 RMK A01 T01580158  RH  100%=      5-min Rain = 0
KTH1 070740Z 35003KT 16/16 A3012 RMK A01 T01580158  RH  100%=      5-min Rain = 0
KTH1 070741Z 35003KT 16/16 A3012 RMK A01 T01580158  RH  100%=      5-min Rain = 0
KTH1 070742Z 34003KT 16/16 A3012 RMK A01 T01580158  RH  100%=      5-min Rain = 0
KTH1 070743Z 33003KT 16/16 A3013 RMK A01 T01580158  RH  100%=      5-min Rain = 0.01
KTH1 070744Z 33004KT 16/16 A3013 RMK A01 T01580158  RH  100%=      5-min Rain = 0
KTH1 070745Z 32005KT 16/16 A3013 RMK A01 T01580158  RH  100%=      5-min Rain = 0
KTH1 070746Z 32005KT 16/16 A3013 RMK A01 T01580158  RH  100%=      5-min Rain = 0
KTH1 070747Z 32005KT 16/16 A3013 RMK A01 T01580158  RH  100%=      5-min Rain = 0
KTH1 070748Z 32005KT 16/16 A3013 RMK A01 T01590159  RH  100%=      5-min Rain = 0
KTH1 070749Z 33004KT 16/16 A3013 RMK A01 T01590159  RH  100%=      5-min Rain = 0
KTH1 070750Z 32004KT 16/16 A3013 RMK A01 T01600160  RH  100%=      5-min Rain = 0.01
KTH1 070751Z 33004KT 16/16 A3013 RMK A01 T01600160  RH  100%=      5-min Rain = 0
KTH1 070752Z 32004KT 16/16 A3013 RMK A01 T01600160  RH  100%=      5-min Rain = 0
KTH1 070753Z 32005KT 16/16 A3013 RMK A01 T01600160  RH  100%=      5-min Rain = 0
KTH1 070754Z 32005KT 16/16 A3013 RMK A01 T01600160  RH  100%=      5-min Rain = 0
KTH1 070755Z 32005KT 16/16 A3013 RMK A01 T01600160  RH  100%=      5-min Rain = 0
KTH1 070756Z 32004KT 16/16 A3013 RMK A01 T01600160  RH  100%=      5-min Rain = 0
KTH1 070757Z 32004KT 16/16 A3013 RMK A01 T01600160  RH  100%=      5-min Rain = 0.01
KTH1 070758Z 33004KT 16/16 A3013 RMK A01 T01600160  RH  100%=      5-min Rain = 0
KTH1 070759Z 32003KT 16/16 A3013 RMK A01 T01600160  RH  100%=      5-min Rain = 0
KTH1 070800Z 32003KT 16/16 A3013 RMK A01 T01600160  RH  100%=      5-min Rain = 0
KTH1 070801Z 32003KT 16/16 A3013 RMK A01 T01600160  RH  100%=      5-min Rain = 0
KTH1 070802Z 32002KT 16/16 A3013 RMK A01 T01600160  RH  100%=      5-min Rain = 0
KTH1 070803Z 32002KT 16/16 A3013 RMK A01 T01600160  RH  100%=      5-min Rain = 0.01
KTH1 070804Z 32002KT 16/16 A3013 RMK A01 T01600160  RH  100%=      5-min Rain = 0
KTH1 070805Z 32002KT 16/16 A3013 RMK A01 T01600160  RH  100%=      5-min Rain = 0
KTH1 070806Z 32001KT 16/16 A3013 RMK A01 T01600160  RH  100%=      5-min Rain = 0
KTH1 070807Z 31001KT 16/16 A3013 RMK A01 T01600160  RH  100%=      5-min Rain = 0
KTH1 070808Z 30001KT 16/16 A3013 RMK A01 T01600160  RH  100%=      5-min Rain = 0
KTH1 070809Z 31001KT 16/16 A3013 RMK A01 T01600160  RH  100%=      5-min Rain = 0
KTH1 070810Z 31001KT 16/16 A3013 RMK A01 T01600160  RH  100%=      5-min Rain = 0
KTH1 070811Z 31000KT 16/16 A3013 RMK A01 T01600160  RH  100%=      5-min Rain = 0
KTH1 070812Z 00000KT 16/16 A3013 RMK A01 T01600160  RH  100%=      5-min Rain = 0
KTH1 070813Z 31001KT 16/16 A3014 RMK A01 T01590159  RH  100%=      5-min Rain = 0
KTH1 070814Z 29001KT 16/16 A3014 RMK A01 T01590159  RH  100%=      5-min Rain = 0
KTH1 070815Z 28001KT 16/16 A3014 RMK A01 T01590160  RH  100%=      5-min Rain = 0.01
KTH1 070816Z 26001KT 16/16 A3014 RMK A01 T01590159  RH  100%=      5-min Rain = 0
KTH1 070817Z 26001KT 16/16 A3014 RMK A01 T01600160  RH  100%=      5-min Rain = 0
KTH1 070818Z 26000KT 16/16 A3014 RMK A01 T01590159  RH  100%=      5-min Rain = 0
KTH1 070819Z 23001KT 16/16 A3014 RMK A01 T01590159  RH  100%=      5-min Rain = 0
KTH1 070820Z 23002KT 16/16 A3014 RMK A01 T01590160  RH  100%=      5-min Rain = 0
KTH1 070821Z 23002KT 16/16 A3014 RMK A01 T01590159  RH  100%=      5-min Rain = 0
KTH1 070822Z 23002KT 16/16 A3014 RMK A01 T01590159  RH  100%=      5-min Rain = 0.01
KTH1 070823Z 22002KT 16/16 A3014 RMK A01 T01590159  RH  100%=      5-min Rain = 0
KTH1 070824Z 22003KT 16/16 A3014 RMK A01 T01590159  RH  100%=      5-min Rain = 0
KTH1 070825Z 23002KT 16/16 A3014 RMK A01 T01590159  RH  100%=      5-min Rain = 0
KTH1 070826Z 23002KT 16/16 A3014 RMK A01 T01590159  RH  100%=      5-min Rain = 0.01
KTH1 070827Z 24001KT 16/16 A3014 RMK A01 T01590159  RH  100%=      5-min Rain = 0
KTH1 070828Z 24000KT 16/16 A3014 RMK A01 T01590159  RH  100%=      5-min Rain = 0
KTH1 070829Z 00000KT 16/16 A3014 RMK A01 T01590159  RH  100%=      5-min Rain = 0
KTH1 070830Z 24000KT 16/16 A3014 RMK A01 T01590159  RH  100%=      5-min Rain = 0
KTH1 070831Z 05000KT 16/16 A3013 RMK A01 T01590159  RH  100%=      5-min Rain = 0.01
KTH1 070832Z 05001KT 16/16 A3013 RMK A01 T01590159  RH  100%=      5-min Rain = 0
KTH1 070833Z 05001KT 16/16 A3013 RMK A01 T01590159  RH  100%=      5-min Rain = 0
KTH1 070834Z 07001KT 16/16 A3013 RMK A01 T01590159  RH  100%=      5-min Rain = 0
KTH1 070835Z 07001KT 16/16 A3013 RMK A01 T01590159  RH  100%=      5-min Rain = 0.01
KTH1 070836Z 07001KT 16/16 A3013 RMK A01 T01590159  RH  100%=      5-min Rain = 0
KTH1 070837Z 09001KT 16/16 A3013 RMK A01 T01590159  RH  100%=      5-min Rain = 0
KTH1 070838Z 09000KT 16/16 A3013 RMK A01 T01590159  RH  100%=      5-min Rain = 0
KTH1 070839Z 00000KT 16/16 A3013 RMK A01 T01590159  RH  100%=      5-min Rain = 0.01
KTH1 070840Z 00000KT 16/16 A3013 RMK A01 T01590159  RH  100%=      5-min Rain = 0
KTH1 070841Z 00000KT 16/16 A3013 RMK A01 T01590159  RH  100%=      5-min Rain = 0
KTH1 070842Z 12000KT 16/16 A3013 RMK A01 T01590159  RH  100%=      5-min Rain = 0
KTH1 070843Z 12001KT 16/16 A3013 RMK A01 T01590160  RH  100%=      5-min Rain = 0.01
KTH1 070844Z 11002KT 16/16 A3012 RMK A01 T01590159  RH  100%=      5-min Rain = 0
KTH1 070845Z 11002KT 16/16 A3012 RMK A01 T01590159  RH  100%=      5-min Rain = 0
KTH1 070846Z 10002KT 16/16 A3012 RMK A01 T01590159  RH  100%=      5-min Rain = 0.01
KTH1 070847Z 10002KT 16/16 A3012 RMK A01 T01590159  RH  100%=      5-min Rain = 0
KTH1 070848Z 09002KT 16/16 A3012 RMK A01 T01590159  RH  100%=      5-min Rain = 0
KTH1 070849Z 09002KT 16/16 A3012 RMK A01 T01590159  RH  100%=      5-min Rain = 0.01
KTH1 070850Z 09002KT 16/16 A3012 RMK A01 T01590160  RH  100%=      5-min Rain = 0
KTH1 070851Z 09002KT 16/16 A3012 RMK A01 T01590159  RH  100%=      5-min Rain = 0
KTH1 070852Z 08001KT 16/16 A3012 RMK A01 T01600160  RH  100%=      5-min Rain = 0
KTH1 070853Z 08001KT 16/16 A3012 RMK A01 T01600160  RH  100%=      5-min Rain = 0
KTH1 070854Z 08000KT 16/16 A3013 RMK A01 T01590159  RH  100%=      5-min Rain = 0
KTH1 070855Z 00000KT 16/16 A3013 RMK A01 T01590159  RH  100%=      5-min Rain = 0
KTH1 070856Z 00000KT 16/16 A3013 RMK A01 T01590159  RH  100%=      5-min Rain = 0.01
KTH1 070857Z 22000KT 16/16 A3013 RMK A01 T01590159  RH  100%=      5-min Rain = 0
KTH1 070858Z 23002KT 16/16 A3013 RMK A01 T01590159  RH  100%=      5-min Rain = 0
KTH1 070859Z 22002KT 16/16 A3013 RMK A01 T01580159  RH  100%=      5-min Rain = 0
KTH1 070900Z 21002KT 16/16 A3013 RMK A01 T01580158  RH  100%=      5-min Rain = 0
KTH1 070901Z 22003KT 16/16 A3013 RMK A01 T01580158  RH  100%=      5-min Rain = 0
KTH1 070902Z 23003KT 16/16 A3013 RMK A01 T01580158  RH  100%=      5-min Rain = 0
KTH1 070903Z 22002KT 16/16 A3013 RMK A01 T01580158  RH  100%=      5-min Rain = 0
KTH1 070904Z 23002KT 16/16 A3013 RMK A01 T01580158  RH  100%=      5-min Rain = 0
KTH1 070905Z 23002KT 16/16 A3013 RMK A01 T01580158  RH  100%=      5-min Rain = 0
KTH1 070906Z 22002KT 16/16 A3013 RMK A01 T01580158  RH  100%=      5-min Rain = 0
KTH1 070907Z 23002KT 16/16 A3013 RMK A01 T01580158  RH  100%=      5-min Rain = 0
KTH1 070908Z 23001KT 16/16 A3013 RMK A01 T01580158  RH  100%=      5-min Rain = 0
KTH1 070909Z 22001KT 16/16 A3013 RMK A01 T01580158  RH  100%=      5-min Rain = 0
KTH1 070910Z 21001KT 16/16 A3013 RMK A01 T01580158  RH  100%=      5-min Rain = 0
KTH1 070911Z 20001KT 16/16 A3013 RMK A01 T01580158  RH  100%=      5-min Rain = 0.01
KTH1 070912Z 20001KT 16/16 A3013 RMK A01 T01580158  RH  100%=      5-min Rain = 0
KTH1 070913Z 20001KT 16/16 A3013 RMK A01 T01580158  RH  100%=      5-min Rain = 0
KTH1 070914Z 21001KT 16/16 A3013 RMK A01 T01580158  RH  100%=      5-min Rain = 0
KTH1 070915Z 21000KT 16/16 A3013 RMK A01 T01580158  RH  100%=      5-min Rain = 0
KTH1 070916Z 00000KT 16/16 A3013 RMK A01 T01580158  RH  100%=      5-min Rain = 0
KTH1 070917Z 00000KT 16/16 A3013 RMK A01 T01580158  RH  100%=      5-min Rain = 0.01
KTH1 070918Z 00000KT 16/16 A3013 RMK A01 T01580158  RH  100%=      5-min Rain = 0
KTH1 070919Z 30001KT 16/16 A3013 RMK A01 T01580158  RH  100%=      5-min Rain = 0
KTH1 070920Z 30002KT 16/16 A3013 RMK A01 T01570157  RH  100%=      5-min Rain = 0
KTH1 070921Z 30002KT 16/16 A3013 RMK A01 T01560156  RH  100%=      5-min Rain = 0
KTH1 070922Z 31002KT 16/16 A3013 RMK A01 T01550155  RH  100%=      5-min Rain = 0
KTH1 070923Z 31002KT 15/15 A3013 RMK A01 T01540154  RH  100%=      5-min Rain = 0
KTH1 070924Z 31002KT 15/15 A3013 RMK A01 T01540154  RH  100%=      5-min Rain = 0
KTH1 070925Z 31002KT 15/15 A3013 RMK A01 T01540154  RH  100%=      5-min Rain = 0
KTH1 070926Z 31003KT 15/15 A3013 RMK A01 T01540154  RH  100%=      5-min Rain = 0
KTH1 070927Z 33002KT 15/15 A3013 RMK A01 T01540154  RH  100%=      5-min Rain = 0
KTH1 070928Z 33002KT 15/15 A3013 RMK A01 T01540154  RH  100%=      5-min Rain = 0
KTH1 070929Z 33003KT 16/16 A3013 RMK A01 T01550155  RH  100%=      5-min Rain = 0
KTH1 070930Z 33003KT 16/16 A3013 RMK A01 T01550155  RH  100%=      5-min Rain = 0
KTH1 070931Z 33003KT 16/16 A3013 RMK A01 T01560156  RH  100%=      5-min Rain = 0
KTH1 070932Z 33003KT 16/16 A3013 RMK A01 T01560156  RH  100%=      5-min Rain = 0
KTH1 070933Z 34004KT 16/16 A3013 RMK A01 T01560156  RH  100%=      5-min Rain = 0
KTH1 070934Z 34005KT 16/16 A3013 RMK A01 T01570157  RH  100%=      5-min Rain = 0.01
KTH1 070935Z 35004KT 16/16 A3013 RMK A01 T01570157  RH  100%=      5-min Rain = 0
KTH1 070936Z 36004KT 16/16 A3013 RMK A01 T01570157  RH  100%=      5-min Rain = 0
KTH1 070937Z 36007KT 16/16 A3013 RMK A01 T01570157  RH  100%=      5-min Rain = 0
KTH1 070938Z 36016G26KT 16/16 A3014 RMK A01 T01560156  RH  100%=      5-min Rain = 0
KTH1 070939Z 00017G23KT 14/14 A3014 RMK A01 T01400138  RH  099%=      5-min Rain = 0.01
KTH1 070940Z 35016KT 13/13 A3014 RMK A01 T01280125  RH  098%=      5-min Rain = 0
KTH1 070941Z 35014G20KT 12/12 A3015 RMK A01 T01200119  RH  099%=      5-min Rain = 0
KTH1 070942Z 34013G18KT 12/12 A3015 RMK A01 T01160115  RH  099%=      5-min Rain = 0
KTH1 070943Z 33013G19KT 11/11 A3015 RMK A01 T01130113  RH  100%=      5-min Rain = 0.01
KTH1 070944Z 34015G20KT 11/11 A3015 RMK A01 T01100110  RH  100%=      5-min Rain = 0
KTH1 070945Z 35013G19KT 11/11 A3015 RMK A01 T01070107  RH  100%=      5-min Rain = 0
KTH1 070946Z 35014G21KT 11/11 A3015 RMK A01 T01050105  RH  100%=      5-min Rain = 0
KTH1 070947Z 35013KT 10/10 A3015 RMK A01 T01040104  RH  100%=      5-min Rain = 0
KTH1 070948Z 35016G22KT 10/10 A3015 RMK A01 T01030103  RH  100%=      5-min Rain = 0
KTH1 070949Z 34017G24KT 10/10 A3015 RMK A01 T01010101  RH  100%=      5-min Rain = 0
KTH1 070950Z 35017G24KT 10/10 A3015 RMK A01 T00990099  RH  100%=      5-min Rain = 0.01
KTH1 070951Z 34020G26KT 10/10 A3015 RMK A01 T00970097  RH  100%=      5-min Rain = 0
KTH1 070952Z 35018G25KT 09/09 A3015 RMK A01 T00940094  RH  100%=      5-min Rain = 0
KTH1 070953Z 35019G27KT 09/09 A3016 RMK A01 T00920092  RH  100%=      5-min Rain = 0
KTH1 070954Z 34019G26KT 09/09 A3016 RMK A01 T00910090  RH  100%=      5-min Rain = 0
KTH1 070955Z 34019G25KT 09/09 A3017 RMK A01 T00890089  RH  100%=      5-min Rain = 0
KTH1 070956Z 34019G25KT 09/09 A3017 RMK A01 T00880088  RH  100%=      5-min Rain = 0
KTH1 070957Z 33020G30KT 09/09 A3018 RMK A01 T00880088  RH  100%=      5-min Rain = 0
KTH1 070958Z 34019G28KT 09/09 A3018 RMK A01 T00870087  RH  100%=      5-min Rain = 0
KTH1 070959Z 35017KT 09/09 A3018 RMK A01 T00860086  RH  100%=      5-min Rain = 0
KTH1 071000Z 35017G24KT 09/09 A3018 RMK A01 T00850085  RH  100%=      5-min Rain = 0.01
KTH1 071001Z 34015G20KT 09/08 A3018 RMK A01 T00850084  RH  100%=      5-min Rain = 0
KTH1 071002Z 34018G23KT 09/09 A3018 RMK A01 T00850085  RH  100%=      5-min Rain = 0
KTH1 071003Z 34015G22KT 09/08 A3018 RMK A01 T00850084  RH  100%=      5-min Rain = 0
KTH1 071004Z 32018KT 08/08 A3018 RMK A01 T00840084  RH  100%=      5-min Rain = 0
KTH1 071005Z 33013G18KT 08/08 A3018 RMK A01 T00830083  RH  100%=      5-min Rain = 0.01
KTH1 071006Z 33019G24KT 08/08 A3018 RMK A01 T00820082  RH  100%=      5-min Rain = 0
KTH1 071007Z 33019G26KT 08/08 A3018 RMK A01 T00810080  RH  099%=      5-min Rain = 0
KTH1 071008Z 34017G23KT 08/08 A3019 RMK A01 T00790078  RH  099%=      5-min Rain = 0
KTH1 071009Z 34014G23KT 08/08 A3019 RMK A01 T00790078  RH  099%=      5-min Rain = 0
KTH1 071010Z 33014G22KT 08/08 A3019 RMK A01 T00790078  RH  099%=      5-min Rain = 0.01
KTH1 071011Z 33011KT 08/08 A3019 RMK A01 T00790078  RH  100%=      5-min Rain = 0
KTH1 071012Z 34010G16KT 08/08 A3019 RMK A01 T00790078  RH  100%=      5-min Rain = 0
KTH1 071013Z 33013G27KT 08/08 A302 RMK A01 T00790078  RH  100%=      5-min Rain = 0
KTH1 071014Z 35015G25KT 08/08 A302 RMK A01 T00790078  RH  100%=      5-min Rain = 0
KTH1 071015Z 34011G16KT 08/08 A302 RMK A01 T00780078  RH  100%=      5-min Rain = 0
KTH1 071016Z 33014G21KT 08/08 A3019 RMK A01 T00780077  RH  100%=      5-min Rain = 0.01
KTH1 071017Z 34012G19KT 08/08 A302 RMK A01 T00780077  RH  100%=      5-min Rain = 0
KTH1 071018Z 34012G17KT 08/08 A302 RMK A01 T00770076  RH  099%=      5-min Rain = 0
KTH1 071019Z 33011G16KT 08/08 A302 RMK A01 T00760076  RH  099%=      5-min Rain = 0
KTH1 071020Z 33013G21KT 08/08 A302 RMK A01 T00760076  RH  099%=      5-min Rain = 0
KTH1 071021Z 33015KT 08/07 A302 RMK A01 T00750074  RH  099%=      5-min Rain = 0
KTH1 071022Z 34016KT 08/07 A302 RMK A01 T00750074  RH  099%=      5-min Rain = 0
KTH1 071023Z 34012G17KT 07/07 A302 RMK A01 T00740073  RH  099%=      5-min Rain = 0
KTH1 071024Z 33011G17KT 07/07 A302 RMK A01 T00740073  RH  099%=      5-min Rain = 0
KTH1 071025Z 34010G16KT 07/07 A302 RMK A01 T00730072  RH  099%=      5-min Rain = 0
KTH1 071026Z 34012G17KT 07/07 A302 RMK A01 T00730072  RH  099%=      5-min Rain = 0.01
KTH1 071027Z 34010G15KT 07/07 A302 RMK A01 T00730072  RH  099%=      5-min Rain = 0
KTH1 071028Z 34015G22KT 07/07 A302 RMK A01 T00730072  RH  099%=      5-min Rain = 0
KTH1 071029Z 35016G23KT 07/07 A302 RMK A01 T00730072  RH  099%=      5-min Rain = 0
KTH1 071030Z 34015G21KT 07/07 A3021 RMK A01 T00720071  RH  099%=      5-min Rain = 0
KTH1 071031Z 34013G18KT 07/07 A3021 RMK A01 T00720071  RH  099%=      5-min Rain = 0
KTH1 071032Z 33019KT 07/07 A3021 RMK A01 T00720071  RH  099%=      5-min Rain = 0
KTH1 071033Z 34020G30KT 07/07 A3021 RMK A01 T00710070  RH  099%=      5-min Rain = 0
KTH1 071034Z 33012G18KT 07/07 A3021 RMK A01 T00700068  RH  099%=      5-min Rain = 0.01
KTH1 071035Z 34013G22KT 07/07 A3022 RMK A01 T00700068  RH  099%=      5-min Rain = 0
KTH1 071036Z 33015G21KT 07/07 A3022 RMK A01 T00690068  RH  099%=      5-min Rain = 0
KTH1 071037Z 34016G21KT 07/07 A3022 RMK A01 T00680066  RH  099%=      5-min Rain = 0
KTH1 071038Z 33016G21KT 07/07 A3022 RMK A01 T00680066  RH  099%=      5-min Rain = 0.01
KTH1 071039Z 34014G21KT 07/07 A3022 RMK A01 T00670065  RH  099%=      5-min Rain = 0
KTH1 071040Z 35012G18KT 07/07 A3022 RMK A01 T00670065  RH  099%=      5-min Rain = 0
KTH1 071041Z 35013G23KT 07/06 A3022 RMK A01 T00660064  RH  099%=      5-min Rain = 0
KTH1 071042Z 33016G22KT 07/06 A3022 RMK A01 T00660064  RH  099%=      5-min Rain = 0
KTH1 071043Z 34019G27KT 07/06 A3022 RMK A01 T00660064  RH  098%=      5-min Rain = 0
KTH1 071044Z 34015KT 07/06 A3023 RMK A01 T00660063  RH  098%=      5-min Rain = 0
KTH1 071045Z 35018KT 07/06 A3023 RMK A01 T00650063  RH  098%=      5-min Rain = 0
KTH1 071046Z 34013G19KT 07/06 A3023 RMK A01 T00650062  RH  098%=      5-min Rain = 0
KTH1 071047Z 35014G21KT 07/06 A3023 RMK A01 T00650062  RH  098%=      5-min Rain = 0
KTH1 071048Z 34012KT 07/06 A3023 RMK A01 T00650062  RH  098%=      5-min Rain = 0
KTH1 071049Z 33012G17KT 07/06 A3023 RMK A01 T00650063  RH  098%=      5-min Rain = 0.01
KTH1 071050Z 34012KT 07/06 A3023 RMK A01 T00650063  RH  099%=      5-min Rain = 0
KTH1 071051Z 34014KT 07/06 A3023 RMK A01 T00650063  RH  099%=      5-min Rain = 0
KTH1 071052Z 34010KT 07/06 A3023 RMK A01 T00650063  RH  099%=      5-min Rain = 0
KTH1 071053Z 34011G17KT 06/06 A3023 RMK A01 T00640063  RH  099%=      5-min Rain = 0
KTH1 071054Z 34014G19KT 06/06 A3023 RMK A01 T00640062  RH  099%=      5-min Rain = 0
KTH1 071055Z 34013KT 06/06 A3024 RMK A01 T00630061  RH  099%=      5-min Rain = 0
KTH1 071056Z 34012G18KT 06/06 A3024 RMK A01 T00630061  RH  099%=      5-min Rain = 0
KTH1 071057Z 34012KT 06/06 A3024 RMK A01 T00630061  RH  099%=      5-min Rain = 0
KTH1 071058Z 34011KT 06/06 A3024 RMK A01 T00630062  RH  099%=      5-min Rain = 0
KTH1 071059Z 34014KT 06/06 A3024 RMK A01 T00620061  RH  099%=      5-min Rain = 0
KTH1 071100Z 34012KT 06/06 A3024 RMK A01 T00620061  RH  099%=      5-min Rain = 0
KTH1 071101Z 34011KT 06/06 A3024 RMK A01 T00620061  RH  099%=      5-min Rain = 0.01
KTH1 071102Z 33012G18KT 06/06 A3024 RMK A01 T00620061  RH  099%=      5-min Rain = 0
KTH1 071103Z 34014G21KT 06/06 A3024 RMK A01 T00620061  RH  099%=      5-min Rain = 0
KTH1 071104Z 34013KT 06/06 A3024 RMK A01 T00610060  RH  099%=      5-min Rain = 0
KTH1 071105Z 34010G16KT 06/06 A3024 RMK A01 T00610060  RH  099%=      5-min Rain = 0
KTH1 071106Z 33015G22KT 06/06 A3024 RMK A01 T00610060  RH  099%=      5-min Rain = 0
KTH1 071107Z 34014G20KT 06/06 A3024 RMK A01 T00610060  RH  099%=      5-min Rain = 0.01
KTH1 071108Z 33016G21KT 06/06 A3024 RMK A01 T00600059  RH  099%=      5-min Rain = 0
KTH1 071109Z 34013G23KT 06/06 A3024 RMK A01 T00600058  RH  099%=      5-min Rain = 0
KTH1 071110Z 34011G18KT 06/06 A3024 RMK A01 T00590058  RH  099%=      5-min Rain = 0.01
KTH1 071111Z 35015G22KT 06/06 A3025 RMK A01 T00590058  RH  099%=      5-min Rain = 0
KTH1 071112Z 34014G20KT 06/06 A3025 RMK A01 T00590058  RH  099%=      5-min Rain = 0
KTH1 071113Z 35016KT 06/06 A3025 RMK A01 T00590058  RH  099%=      5-min Rain = 0.01
KTH1 071114Z 34012G19KT 06/06 A3025 RMK A01 T00590058  RH  099%=      5-min Rain = 0
KTH1 071115Z 35016G23KT 06/06 A3025 RMK A01 T00590058  RH  099%=      5-min Rain = 0
KTH1 071116Z 35013G18KT 06/06 A3025 RMK A01 T00580057  RH  099%=      5-min Rain = 0
KTH1 071117Z 35014G19KT 06/06 A3025 RMK A01 T00590058  RH  099%=      5-min Rain = 0.01
KTH1 071118Z 35014G19KT 06/06 A3025 RMK A01 T00590057  RH  099%=      5-min Rain = 0
KTH1 071119Z 34018G26KT 06/06 A3025 RMK A01 T00590057  RH  099%=      5-min Rain = 0
KTH1 071120Z 34019G25KT 06/06 A3025 RMK A01 T00580057  RH  099%=      5-min Rain = 0
KTH1 071121Z 35018KT 06/06 A3025 RMK A01 T00570056  RH  099%=      5-min Rain = 0
KTH1 071122Z 34016G22KT 06/06 A3025 RMK A01 T00570056  RH  099%=      5-min Rain = 0
KTH1 071123Z 34010G15KT 06/06 A3025 RMK A01 T00570056  RH  099%=      5-min Rain = 0.01
KTH1 071124Z 34012G17KT 06/06 A3025 RMK A01 T00570056  RH  099%=      5-min Rain = 0
KTH1 071125Z 34012G17KT 06/06 A3026 RMK A01 T00570056  RH  099%=      5-min Rain = 0
KTH1 071126Z 35014G19KT 06/06 A3026 RMK A01 T00570056  RH  099%=      5-min Rain = 0
KTH1 071127Z 34016G23KT 06/06 A3026 RMK A01 T00570056  RH  099%=      5-min Rain = 0
KTH1 071128Z 33015G21KT 06/06 A3026 RMK A01 T00570055  RH  099%=      5-min Rain = 0
KTH1 071129Z 33016G24KT 06/05 A3026 RMK A01 T00560054  RH  099%=      5-min Rain = 0.01
KTH1 071130Z 34016G22KT 06/05 A3026 RMK A01 T00550053  RH  099%=      5-min Rain = 0
KTH1 071131Z 34019G26KT 05/05 A3026 RMK A01 T00540052  RH  099%=      5-min Rain = 0
KTH1 071132Z 34016G24KT 05/05 A3026 RMK A01 T00540051  RH  099%=      5-min Rain = 0
KTH1 071133Z 34019G27KT 05/05 A3026 RMK A01 T00530051  RH  098%=      5-min Rain = 0
KTH1 071134Z 34014G22KT 05/05 A3026 RMK A01 T00530050  RH  098%=      5-min Rain = 0
KTH1 071135Z 34020G25KT 05/05 A3026 RMK A01 T00520050  RH  098%=      5-min Rain = 0
KTH1 071136Z 35014G21KT 05/05 A3026 RMK A01 T00530050  RH  098%=      5-min Rain = 0.01
KTH1 071137Z 35012G17KT 05/05 A3026 RMK A01 T00520050  RH  098%=      5-min Rain = 0
KTH1 071138Z 34018G23KT 05/05 A3026 RMK A01 T00520050  RH  098%=      5-min Rain = 0
KTH1 071139Z 35019G27KT 05/05 A3026 RMK A01 T00520050  RH  098%=      5-min Rain = 0
KTH1 071140Z 35016G22KT 05/05 A3027 RMK A01 T00520049  RH  098%=      5-min Rain = 0
KTH1 071141Z 35013G22KT 05/05 A3027 RMK A01 T00520049  RH  098%=      5-min Rain = 0
KTH1 071142Z 34011KT 05/05 A3027 RMK A01 T00520049  RH  098%=      5-min Rain = 0
KTH1 071143Z 34016G29KT 05/05 A3026 RMK A01 T00510049  RH  098%=      5-min Rain = 0
KTH1 071144Z 35020G29KT 05/05 A3026 RMK A01 T00510049  RH  098%=      5-min Rain = 0
KTH1 071145Z 34013G21KT 05/05 A3026 RMK A01 T00510048  RH  098%=      5-min Rain = 0
KTH1 071146Z 35014G21KT 05/05 A3026 RMK A01 T00510048  RH  098%=      5-min Rain = 0.01
KTH1 071147Z 35013G20KT 05/05 A3027 RMK A01 T00510048  RH  098%=      5-min Rain = 0
KTH1 071148Z 34014KT 05/05 A3027 RMK A01 T00510048  RH  098%=      5-min Rain = 0
KTH1 071149Z 35019G25KT 05/05 A3027 RMK A01 T00510048  RH  098%=      5-min Rain = 0
KTH1 071150Z 35013G20KT 05/05 A3027 RMK A01 T00500047  RH  098%=      5-min Rain = 0
KTH1 071151Z 35018G26KT 05/05 A3027 RMK A01 T00500047  RH  098%=      5-min Rain = 0
KTH1 071152Z 35012G18KT 05/05 A3027 RMK A01 T00500048  RH  098%=      5-min Rain = 0
KTH1 071153Z 35011G18KT 05/05 A3027 RMK A01 T00500048  RH  098%=      5-min Rain = 0.01
KTH1 071154Z 34013KT 05/05 A3027 RMK A01 T00500048  RH  098%=      5-min Rain = 0
KTH1 071155Z 34014G24KT 05/05 A3027 RMK A01 T00500048  RH  098%=      5-min Rain = 0
KTH1 071156Z 34014G20KT 05/05 A3027 RMK A01 T00500048  RH  098%=      5-min Rain = 0
KTH1 071157Z 36017KT 05/05 A3027 RMK A01 T00500047  RH  098%=      5-min Rain = 0
KTH1 071158Z 35015G20KT 05/05 A3027 RMK A01 T00500047  RH  098%=      5-min Rain = 0.01
KTH1 071159Z 35012G17KT 05/05 A3027 RMK A01 T00500047  RH  098%=      5-min Rain = 0
KTH1 071200Z 34012G17KT 05/05 A3027 RMK A01 T00500047  RH  099%=      5-min Rain = 0
KTH1 071201Z 35014G21KT 05/05 A3028 RMK A01 T00490047  RH  099%=      5-min Rain = 0
KTH1 071202Z 34011KT 05/05 A3028 RMK A01 T00490047  RH  099%=      5-min Rain = 0
KTH1 071203Z 34011KT 05/05 A3028 RMK A01 T00490047  RH  099%=      5-min Rain = 0.01
KTH1 071204Z 34013G19KT 05/05 A3028 RMK A01 T00490047  RH  099%=      5-min Rain = 0
KTH1 071205Z 35014G22KT 05/05 A3028 RMK A01 T00490047  RH  099%=      5-min Rain = 0
KTH1 071206Z 34016G22KT 05/05 A3028 RMK A01 T00490047  RH  099%=      5-min Rain = 0
KTH1 071207Z 34017G22KT 05/05 A3028 RMK A01 T00480046  RH  098%=      5-min Rain = 0
KTH1 071208Z 34013G19KT 05/05 A3028 RMK A01 T00480045  RH  098%=      5-min Rain = 0.01
KTH1 071209Z 34017G24KT 05/05 A3028 RMK A01 T00470045  RH  098%=      5-min Rain = 0
KTH1 071210Z 35015G21KT 05/04 A3028 RMK A01 T00460044  RH  098%=      5-min Rain = 0
KTH1 071211Z 35014KT 05/04 A3028 RMK A01 T00460043  RH  098%=      5-min Rain = 0.01
KTH1 071212Z 35013KT 05/04 A3028 RMK A01 T00460044  RH  098%=      5-min Rain = 0
KTH1 071213Z 35013G20KT 05/04 A3028 RMK A01 T00460044  RH  098%=      5-min Rain = 0
KTH1 071214Z 34015G21KT 05/04 A3028 RMK A01 T00460044  RH  098%=      5-min Rain = 0
KTH1 071215Z 35014G19KT 05/04 A3028 RMK A01 T00460044  RH  098%=      5-min Rain = 0
KTH1 071216Z 36019G26KT 05/04 A3028 RMK A01 T00460043  RH  098%=      5-min Rain = 0.01
KTH1 071217Z 35014G19KT 05/04 A3029 RMK A01 T00460043  RH  098%=      5-min Rain = 0
KTH1 071218Z 35017G23KT 05/04 A3028 RMK A01 T00460043  RH  098%=      5-min Rain = 0
KTH1 071219Z 35016G26KT 05/04 A3028 RMK A01 T00460043  RH  098%=      5-min Rain = 0
KTH1 071220Z 00017G24KT 05/04 A3028 RMK A01 T00460043  RH  098%=      5-min Rain = 0.01
KTH1 071221Z 35013G19KT 05/04 A3029 RMK A01 T00450042  RH  098%=      5-min Rain = 0
KTH1 071222Z 36015G21KT 05/04 A3028 RMK A01 T00450042  RH  098%=      5-min Rain = 0
KTH1 071223Z 01017G24KT 05/04 A3029 RMK A01 T00450042  RH  098%=      5-min Rain = 0
KTH1 071224Z 00011KT 05/04 A3029 RMK A01 T00450041  RH  098%=      5-min Rain = 0.01
KTH1 071225Z 35013G19KT 05/04 A3029 RMK A01 T00450042  RH  098%=      5-min Rain = 0
KTH1 071226Z 36015KT 05/04 A3029 RMK A01 T00450042  RH  098%=      5-min Rain = 0
KTH1 071227Z 36014G20KT 04/04 A3029 RMK A01 T00440041  RH  098%=      5-min Rain = 0
KTH1 071228Z 00013G21KT 04/04 A3029 RMK A01 T00440041  RH  098%=      5-min Rain = 0
KTH1 071229Z 01014G19KT 04/04 A3029 RMK A01 T00440041  RH  098%=      5-min Rain = 0.01
KTH1 071230Z 01012G19KT 04/04 A3029 RMK A01 T00440040  RH  098%=      5-min Rain = 0
KTH1 071231Z 02013G19KT 04/04 A3029 RMK A01 T00440040  RH  098%=      5-min Rain = 0
KTH1 071232Z 01012G18KT 04/04 A3029 RMK A01 T00430040  RH  098%=      5-min Rain = 0
KTH1 071233Z 00010G15KT 04/04 A3029 RMK A01 T00430040  RH  098%=      5-min Rain = 0.01
KTH1 071234Z 00011KT 04/04 A3029 RMK A01 T00430041  RH  098%=      5-min Rain = 0
KTH1 071235Z 00011G20KT 04/04 A3029 RMK A01 T00430041  RH  098%=      5-min Rain = 0
KTH1 071236Z 00013KT 04/04 A3029 RMK A01 T00430040  RH  098%=      5-min Rain = 0
KTH1 071237Z 01012G18KT 04/04 A3029 RMK A01 T00430040  RH  098%=      5-min Rain = 0.01
KTH1 071238Z 01009G14KT 04/04 A303 RMK A01 T00430041  RH  098%=      5-min Rain = 0
KTH1 071239Z 00009KT 04/04 A303 RMK A01 T00430041  RH  098%=      5-min Rain = 0
KTH1 071240Z 00014G20KT 04/04 A303 RMK A01 T00430041  RH  099%=      5-min Rain = 0.01
KTH1 071241Z 01009KT 04/04 A303 RMK A01 T00430041  RH  099%=      5-min Rain = 0
KTH1 071242Z 36015G20KT 04/04 A3031 RMK A01 T00430041  RH  099%=      5-min Rain = 0
KTH1 071243Z 35015G22KT 04/04 A3031 RMK A01 T00430041  RH  098%=      5-min Rain = 0.01
KTH1 071244Z 35017KT 04/04 A3031 RMK A01 T00430041  RH  098%=      5-min Rain = 0
KTH1 071245Z 35015G23KT 04/04 A3032 RMK A01 T00430040  RH  098%=      5-min Rain = 0.01
KTH1 071246Z 34013G19KT 04/04 A3032 RMK A01 T00420039  RH  098%=      5-min Rain = 0
KTH1 071247Z 35017G26KT 04/04 A3032 RMK A01 T00420039  RH  098%=      5-min Rain = 0.01
KTH1 071248Z 34014G21KT 04/04 A3033 RMK A01 T00420039  RH  098%=      5-min Rain = 0
KTH1 071249Z 34012G18KT 04/04 A3033 RMK A01 T00420039  RH  098%=      5-min Rain = 0
KTH1 071250Z 34014KT 04/04 A3033 RMK A01 T00420039  RH  098%=      5-min Rain = 0.01
KTH1 071251Z 34016G21KT 04/04 A3032 RMK A01 T00420039  RH  098%=      5-min Rain = 0
KTH1 071252Z 34016G23KT 04/04 A3032 RMK A01 T00420039  RH  098%=      5-min Rain = 0
KTH1 071253Z 00013G19KT 04/04 A3031 RMK A01 T00420038  RH  098%=      5-min Rain = 0.01
KTH1 071254Z 00015G20KT 04/04 A3031 RMK A01 T00420038  RH  098%=      5-min Rain = 0
KTH1 071255Z 36018G27KT 04/04 A3031 RMK A01 T00410038  RH  098%=      5-min Rain = 0
KTH1 071256Z 00016G23KT 04/04 A3031 RMK A01 T00410037  RH  097%=      5-min Rain = 0
KTH1 071257Z 36014G20KT 04/04 A3031 RMK A01 T00410037  RH  097%=      5-min Rain = 0
KTH1 071258Z 36011G17KT 04/04 A3031 RMK A01 T00400036  RH  097%=      5-min Rain = 0.01
KTH1 071259Z 36012G20KT 04/04 A3031 RMK A01 T00410037  RH  098%=      5-min Rain = 0
KTH1 071300Z 35015G21KT 04/04 A3031 RMK A01 T00410037  RH  098%=      5-min Rain = 0
KTH1 071301Z 36015G23KT 04/04 A3031 RMK A01 T00400037  RH  098%=      5-min Rain = 0
KTH1 071302Z 00013KT 04/04 A3031 RMK A01 T00400037  RH  098%=      5-min Rain = 0
KTH1 071303Z 35008KT 04/04 A3031 RMK A01 T00400037  RH  098%=      5-min Rain = 0
KTH1 071304Z 35009KT 04/04 A3032 RMK A01 T00400037  RH  098%=      5-min Rain = 0
KTH1 071305Z 35013G19KT 04/04 A3032 RMK A01 T00400037  RH  098%=      5-min Rain = 0.01
KTH1 071306Z 35015G20KT 04/04 A3032 RMK A01 T00400037  RH  098%=      5-min Rain = 0
KTH1 071307Z 34015G20KT 04/04 A3032 RMK A01 T00400037  RH  098%=      5-min Rain = 0
KTH1 071308Z 35013G22KT 04/04 A3032 RMK A01 T00400037  RH  098%=      5-min Rain = 0
KTH1 071309Z 35015G21KT 04/04 A3032 RMK A01 T00390037  RH  098%=      5-min Rain = 0
KTH1 071310Z 36015G23KT 04/04 A3032 RMK A01 T00390036  RH  098%=      5-min Rain = 0
KTH1 071311Z 35017KT 04/04 A3032 RMK A01 T00390036  RH  098%=      5-min Rain = 0
KTH1 071312Z 35012KT 04/04 A3032 RMK A01 T00380035  RH  098%=      5-min Rain = 0
KTH1 071313Z 35015G24KT 04/04 A3032 RMK A01 T00380035  RH  098%=      5-min Rain = 0
KTH1 071314Z 36016G23KT 04/03 A3032 RMK A01 T00380034  RH  098%=      5-min Rain = 0.01
KTH1 071315Z 36015G20KT 04/03 A3032 RMK A01 T00380034  RH  097%=      5-min Rain = 0
KTH1 071316Z 35013G20KT 04/03 A3032 RMK A01 T00370033  RH  097%=      5-min Rain = 0
KTH1 071317Z 00014G22KT 04/03 A3032 RMK A01 T00370033  RH  097%=      5-min Rain = 0
KTH1 071318Z 01012G20KT 04/03 A3032 RMK A01 T00370032  RH  097%=      5-min Rain = 0
KTH1 071319Z 35011G16KT 04/03 A3032 RMK A01 T00370032  RH  097%=      5-min Rain = 0
KTH1 071320Z 36010G17KT 04/03 A3032 RMK A01 T00370033  RH  097%=      5-min Rain = 0
KTH1 071321Z 00010G15KT 04/03 A3032 RMK A01 T00370033  RH  097%=      5-min Rain = 0
KTH1 071322Z 36015G21KT 04/03 A3032 RMK A01 T00370033  RH  097%=      5-min Rain = 0
KTH1 071323Z 36013G18KT 04/03 A3032 RMK A01 T00360032  RH  097%=      5-min Rain = 0.01
KTH1 071324Z 36012G18KT 04/03 A3032 RMK A01 T00360032  RH  097%=      5-min Rain = 0
KTH1 071325Z 36014G21KT 04/03 A3032 RMK A01 T00370032  RH  097%=      5-min Rain = 0
KTH1 071326Z 36011G17KT 04/03 A3032 RMK A01 T00370033  RH  097%=      5-min Rain = 0
KTH1 071327Z 01011G18KT 04/03 A3032 RMK A01 T00360032  RH  097%=      5-min Rain = 0
KTH1 071328Z 35016G24KT 04/03 A3032 RMK A01 T00360033  RH  097%=      5-min Rain = 0
KTH1 071329Z 35014G22KT 04/03 A3032 RMK A01 T00360032  RH  097%=      5-min Rain = 0
KTH1 071330Z 36017G23KT 04/03 A3033 RMK A01 T00360032  RH  097%=      5-min Rain = 0
KTH1 071331Z 00016G25KT 04/03 A3032 RMK A01 T00360032  RH  097%=      5-min Rain = 0
KTH1 071332Z 00017G24KT 04/03 A3032 RMK A01 T00360031  RH  097%=      5-min Rain = 0
KTH1 071333Z 35016G24KT 04/03 A3033 RMK A01 T00350031  RH  097%=      5-min Rain = 0
KTH1 071334Z 00021G26KT 04/03 A3033 RMK A01 T00360031  RH  097%=      5-min Rain = 0
KTH1 071335Z 00015G22KT 04/03 A3033 RMK A01 T00350030  RH  097%=      5-min Rain = 0
KTH1 071336Z 36016G24KT 04/03 A3033 RMK A01 T00350030  RH  096%=      5-min Rain = 0
KTH1 071337Z 36016G21KT 04/03 A3034 RMK A01 T00350030  RH  097%=      5-min Rain = 0
KTH1 071338Z 35015G22KT 04/03 A3034 RMK A01 T00350030  RH  097%=      5-min Rain = 0
KTH1 071339Z 35018G23KT 03/03 A3034 RMK A01 T00340029  RH  097%=      5-min Rain = 0.01
KTH1 071340Z 35021G28KT 03/03 A3034 RMK A01 T00340029  RH  097%=      5-min Rain = 0
KTH1 071341Z 36016G25KT 03/03 A3034 RMK A01 T00330028  RH  096%=      5-min Rain = 0
KTH1 071342Z 00016G22KT 03/03 A3034 RMK A01 T00330028  RH  096%=      5-min Rain = 0
KTH1 071343Z 36015KT 03/03 A3034 RMK A01 T00330028  RH  097%=      5-min Rain = 0
KTH1 071344Z 35015G21KT 03/03 A3034 RMK A01 T00330028  RH  097%=      5-min Rain = 0
KTH1 071345Z 36013G18KT 03/03 A3034 RMK A01 T00330029  RH  097%=      5-min Rain = 0
KTH1 071346Z 36015KT 03/03 A3034 RMK A01 T00330029  RH  097%=      5-min Rain = 0
KTH1 071347Z 00016G24KT 03/03 A3035 RMK A01 T00330029  RH  097%=      5-min Rain = 0
KTH1 071348Z 35014G21KT 03/03 A3035 RMK A01 T00330029  RH  097%=      5-min Rain = 0
KTH1 071349Z 35017KT 03/03 A3035 RMK A01 T00330029  RH  097%=      5-min Rain = 0
KTH1 071350Z 35014G20KT 03/03 A3035 RMK A01 T00330029  RH  097%=      5-min Rain = 0
KTH1 071351Z 35012G18KT 03/03 A3035 RMK A01 T00330029  RH  097%=      5-min Rain = 0
KTH1 071352Z 35016G22KT 03/03 A3035 RMK A01 T00330029  RH  097%=      5-min Rain = 0
KTH1 071353Z 36018G25KT 03/03 A3035 RMK A01 T00340030  RH  097%=      5-min Rain = 0.01
KTH1 071354Z 35018G23KT 03/03 A3035 RMK A01 T00340030  RH  097%=      5-min Rain = 0
KTH1 071355Z 36013G19KT 03/03 A3036 RMK A01 T00340030  RH  097%=      5-min Rain = 0
KTH1 071356Z 35017KT 03/03 A3036 RMK A01 T00340030  RH  097%=      5-min Rain = 0
KTH1 071357Z 35013G18KT 03/03 A3036 RMK A01 T00340029  RH  097%=      5-min Rain = 0
KTH1 071358Z 35011KT 03/03 A3036 RMK A01 T00340030  RH  097%=      5-min Rain = 0
KTH1 071359Z 34015G23KT 03/03 A3036 RMK A01 T00340031  RH  097%=      5-min Rain = 0
KTH1 071400Z 35013G19KT 03/03 A3036 RMK A01 T00340031  RH  098%=      5-min Rain = 0
KTH1 071401Z 35014G19KT 04/03 A3036 RMK A01 T00350031  RH  097%=      5-min Rain = 0
KTH1 071402Z 35016G21KT 04/03 A3037 RMK A01 T00350031  RH  097%=      5-min Rain = 0.01
KTH1 071403Z 35014G25KT 04/03 A3037 RMK A01 T00350031  RH  097%=      5-min Rain = 0
KTH1 071404Z 36016G24KT 03/03 A3037 RMK A01 T00340030  RH  097%=      5-min Rain = 0
KTH1 071405Z 35015G21KT 03/03 A3037 RMK A01 T00340030  RH  097%=      5-min Rain = 0
KTH1 071406Z 35016G21KT 03/03 A3037 RMK A01 T00340030  RH  097%=      5-min Rain = 0
KTH1 071407Z 35017KT 03/03 A3037 RMK A01 T00340029  RH  097%=      5-min Rain = 0
KTH1 071408Z 35014KT 03/03 A3037 RMK A01 T00340029  RH  097%=      5-min Rain = 0
KTH1 071409Z 35011KT 03/03 A3037 RMK A01 T00340029  RH  097%=      5-min Rain = 0
KTH1 071410Z 35011KT 03/03 A3037 RMK A01 T00340030  RH  097%=      5-min Rain = 0
KTH1 071411Z 35010G17KT 04/03 A3038 RMK A01 T00350031  RH  098%=      5-min Rain = 0
KTH1 071412Z 33008KT 04/03 A3038 RMK A01 T00350031  RH  098%=      5-min Rain = 0
KTH1 071413Z 34011G18KT 04/03 A3038 RMK A01 T00350033  RH  098%=      5-min Rain = 0
KTH1 071414Z 34010G15KT 04/03 A3038 RMK A01 T00350033  RH  098%=      5-min Rain = 0
KTH1 071415Z 34014G21KT 04/03 A3038 RMK A01 T00360033  RH  098%=      5-min Rain = 0
KTH1 071416Z 34014G21KT 04/03 A3038 RMK A01 T00360033  RH  098%=      5-min Rain = 0
KTH1 071417Z 35013G18KT 04/03 A3038 RMK A01 T00360033  RH  098%=      5-min Rain = 0
KTH1 071418Z 35015G21KT 04/03 A3038 RMK A01 T00350032  RH  098%=      5-min Rain = 0
KTH1 071419Z 35015KT 04/03 A3038 RMK A01 T00350031  RH  098%=      5-min Rain = 0
KTH1 071420Z 35010G16KT 04/03 A3038 RMK A01 T00350031  RH  098%=      5-min Rain = 0
KTH1 071421Z 34014G22KT 04/03 A3038 RMK A01 T00350031  RH  098%=      5-min Rain = 0.01
KTH1 071422Z 35014KT 04/03 A3038 RMK A01 T00350031  RH  098%=      5-min Rain = 0
KTH1 071423Z 36012G17KT 04/03 A3038 RMK A01 T00350031  RH  097%=      5-min Rain = 0
KTH1 071424Z 35014G19KT 04/03 A3038 RMK A01 T00350031  RH  097%=      5-min Rain = 0
KTH1 071425Z 35016G26KT 03/03 A3038 RMK A01 T00340030  RH  097%=      5-min Rain = 0
KTH1 071426Z 01012G18KT 03/03 A3038 RMK A01 T00330029  RH  097%=      5-min Rain = 0
KTH1 071427Z 36012G17KT 03/03 A3038 RMK A01 T00330029  RH  097%=      5-min Rain = 0
KTH1 071428Z 35012G18KT 03/03 A3039 RMK A01 T00330029  RH  097%=      5-min Rain = 0
KTH1 071429Z 35011G16KT 03/03 A3039 RMK A01 T00330028  RH  097%=      5-min Rain = 0
KTH1 071430Z 36015G20KT 03/03 A3039 RMK A01 T00330028  RH  097%=      5-min Rain = 0
KTH1 071431Z 35015KT 03/03 A3039 RMK A01 T00320027  RH  097%=      5-min Rain = 0
KTH1 071432Z 35018G23KT 03/03 A3039 RMK A01 T00320027  RH  097%=      5-min Rain = 0
KTH1 071433Z 36016G21KT 03/03 A3039 RMK A01 T00320027  RH  096%=      5-min Rain = 0
KTH1 071434Z 35014G20KT 03/03 A3039 RMK A01 T00320027  RH  097%=      5-min Rain = 0
KTH1 071435Z 35017G23KT 03/03 A3038 RMK A01 T00320027  RH  097%=      5-min Rain = 0
KTH1 071436Z 00015G22KT 03/03 A3038 RMK A01 T00320027  RH  097%=      5-min Rain = 0
KTH1 071437Z 35011G17KT 03/03 A3039 RMK A01 T00320027  RH  097%=      5-min Rain = 0
KTH1 071438Z 35009G16KT 03/03 A3039 RMK A01 T00320027  RH  097%=      5-min Rain = 0
KTH1 071439Z 00009G16KT 03/03 A3039 RMK A01 T00320028  RH  097%=      5-min Rain = 0.01
KTH1 071440Z 35011G16KT 03/03 A3039 RMK A01 T00320028  RH  097%=      5-min Rain = 0
KTH1 071441Z 36011G17KT 03/03 A3039 RMK A01 T00320028  RH  097%=      5-min Rain = 0
KTH1 071442Z 36014G21KT 03/03 A3039 RMK A01 T00310027  RH  097%=      5-min Rain = 0
KTH1 071443Z 35014G22KT 03/03 A3039 RMK A01 T00300025  RH  097%=      5-min Rain = 0
KTH1 071444Z 00011G17KT 03/03 A304 RMK A01 T00290025  RH  097%=      5-min Rain = 0
KTH1 071445Z 00013G18KT 03/03 A3039 RMK A01 T00300025  RH  097%=      5-min Rain = 0
KTH1 071446Z 36013G18KT 03/02 A3039 RMK A01 T00290024  RH  096%=      5-min Rain = 0
KTH1 071447Z 00009G14KT 03/02 A3039 RMK A01 T00280024  RH  097%=      5-min Rain = 0
KTH1 071448Z 01007G12KT 03/02 A3039 RMK A01 T00290024  RH  097%=      5-min Rain = 0
KTH1 071449Z 00010G15KT 03/02 A3038 RMK A01 T00280024  RH  097%=      5-min Rain = 0
KTH1 071450Z 00011G17KT 03/02 A3038 RMK A01 T00280023  RH  097%=      5-min Rain = 0
KTH1 071451Z 36009G14KT 03/02 A3039 RMK A01 T00280023  RH  097%=      5-min Rain = 0
KTH1 071452Z 00010G15KT 03/02 A3039 RMK A01 T00280023  RH  097%=      5-min Rain = 0
KTH1 071453Z 00007G12KT 03/02 A3039 RMK A01 T00280023  RH  097%=      5-min Rain = 0.01
KTH1 071454Z 01013G18KT 03/02 A3039 RMK A01 T00280024  RH  097%=      5-min Rain = 0
KTH1 071455Z 35013G20KT 03/02 A3039 RMK A01 T00270023  RH  097%=      5-min Rain = 0
KTH1 071456Z 01011G16KT 03/02 A3039 RMK A01 T00270023  RH  097%=      5-min Rain = 0
KTH1 071457Z 00014G20KT 03/02 A3039 RMK A01 T00270022  RH  097%=      5-min Rain = 0
KTH1 071458Z 01009G18KT 03/02 A3039 RMK A01 T00260022  RH  097%=      5-min Rain = 0
KTH1 071459Z 01011G18KT 03/02 A3039 RMK A01 T00260022  RH  097%=      5-min Rain = 0
KTH1 071500Z 00013G18KT 03/02 A3039 RMK A01 T00260021  RH  097%=      5-min Rain = 0
KTH1 071501Z 35010G16KT 03/02 A3039 RMK A01 T00260021  RH  097%=      5-min Rain = 0.01
KTH1 071502Z 00013KT 03/02 A304 RMK A01 T00260022  RH  097%=      5-min Rain = 0
KTH1 071503Z 36013G18KT 03/02 A304 RMK A01 T00260022  RH  097%=      5-min Rain = 0
KTH1 071504Z 36010KT 03/02 A304 RMK A01 T00260022  RH  097%=      5-min Rain = 0
KTH1 071505Z 00012KT 03/02 A304 RMK A01 T00260022  RH  097%=      5-min Rain = 0
KTH1 071506Z 01011KT 03/02 A304 RMK A01 T00260022  RH  097%=      5-min Rain = 0
KTH1 071507Z 01009KT 03/02 A3039 RMK A01 T00260022  RH  097%=      5-min Rain = 0.01
KTH1 071508Z 01009KT 03/02 A3039 RMK A01 T00260022  RH  097%=      5-min Rain = 0
KTH1 071509Z 02013KT 03/02 A3039 RMK A01 T00260022  RH  097%=      5-min Rain = 0
KTH1 071510Z 36009G15KT 03/02 A3039 RMK A01 T00260022  RH  097%=      5-min Rain = 0
KTH1 071511Z 36012G18KT 03/02 A304 RMK A01 T00260022  RH  097%=      5-min Rain = 0
KTH1 071512Z 35015G24KT 03/02 A304 RMK A01 T00260022  RH  098%=      5-min Rain = 0
KTH1 071513Z 36013G18KT 03/02 A3041 RMK A01 T00260022  RH  097%=      5-min Rain = 0
KTH1 071514Z 35014G19KT 03/02 A3041 RMK A01 T00260022  RH  097%=      5-min Rain = 0
KTH1 071515Z 35012KT 03/02 A3041 RMK A01 T00260022  RH  097%=      5-min Rain = 0
KTH1 071516Z 36010G16KT 03/02 A3041 RMK A01 T00260022  RH  097%=      5-min Rain = 0
KTH1 071517Z 36009G17KT 03/02 A3041 RMK A01 T00260023  RH  097%=      5-min Rain = 0.01
KTH1 071518Z 36013KT 03/02 A3041 RMK A01 T00260023  RH  097%=      5-min Rain = 0
KTH1 071519Z 00011G17KT 03/02 A3041 RMK A01 T00260022  RH  097%=      5-min Rain = 0
KTH1 071520Z 36009G19KT 03/02 A3041 RMK A01 T00260022  RH  097%=      5-min Rain = 0
KTH1 071521Z 00014KT 03/02 A3041 RMK A01 T00260023  RH  097%=      5-min Rain = 0
KTH1 071522Z 36010G16KT 03/02 A3041 RMK A01 T00260022  RH  097%=      5-min Rain = 0
KTH1 071523Z 35010KT 03/02 A3041 RMK A01 T00260022  RH  097%=      5-min Rain = 0
KTH1 071524Z 01013KT 03/02 A304 RMK A01 T00260023  RH  097%=      5-min Rain = 0
KTH1 071525Z 01011G17KT 03/02 A304 RMK A01 T00260022  RH  097%=      5-min Rain = 0
KTH1 071526Z 36013KT 03/02 A3041 RMK A01 T00270023  RH  097%=      5-min Rain = 0
KTH1 071527Z 36011G18KT 03/02 A3041 RMK A01 T00260022  RH  097%=      5-min Rain = 0
KTH1 071528Z 36009G16KT 03/02 A3042 RMK A01 T00270023  RH  097%=      5-min Rain = 0
KTH1 071529Z 35014G20KT 03/02 A3042 RMK A01 T00260023  RH  097%=      5-min Rain = 0
KTH1 071530Z 35015G21KT 03/02 A3042 RMK A01 T00260022  RH  097%=      5-min Rain = 0
KTH1 071531Z 01011KT 03/02 A3042 RMK A01 T00270022  RH  097%=      5-min Rain = 0
KTH1 071532Z 36012G18KT 03/02 A3042 RMK A01 T00260022  RH  097%=      5-min Rain = 0
KTH1 071533Z 00010G15KT 03/02 A3042 RMK A01 T00260022  RH  097%=      5-min Rain = 0
KTH1 071534Z 35010G17KT 03/02 A3042 RMK A01 T00260022  RH  097%=      5-min Rain = 0.01
KTH1 071535Z 36010KT 03/02 A3042 RMK A01 T00260022  RH  097%=      5-min Rain = 0
KTH1 071536Z 35012G18KT 03/02 A3042 RMK A01 T00260022  RH  097%=      5-min Rain = 0
KTH1 071537Z 36011G16KT 03/02 A3042 RMK A01 T00260022  RH  097%=      5-min Rain = 0
KTH1 071538Z 00012KT 03/02 A3042 RMK A01 T00260022  RH  097%=      5-min Rain = 0
KTH1 071539Z 36016KT 03/02 A3042 RMK A01 T00260021  RH  097%=      5-min Rain = 0
KTH1 071540Z 00011G17KT 03/02 A3042 RMK A01 T00260021  RH  097%=      5-min Rain = 0
KTH1 071541Z 35010G16KT 03/02 A3042 RMK A01 T00260021  RH  097%=      5-min Rain = 0
KTH1 071542Z 35010KT 03/02 A3043 RMK A01 T00260022  RH  097%=      5-min Rain = 0
KTH1 071543Z 36011G16KT 03/02 A3043 RMK A01 T00260022  RH  097%=      5-min Rain = 0
KTH1 071544Z 35010KT 03/02 A3043 RMK A01 T00260022  RH  097%=      5-min Rain = 0
KTH1 071545Z 35009KT 03/02 A3043 RMK A01 T00260022  RH  097%=      5-min Rain = 0
KTH1 071546Z 35014G22KT 03/02 A3043 RMK A01 T00270022  RH  097%=      5-min Rain = 0
KTH1 071547Z 36011G16KT 03/02 A3043 RMK A01 T00270022  RH  097%=      5-min Rain = 0
KTH1 071548Z 00008G19KT 03/02 A3043 RMK A01 T00270022  RH  097%=      5-min Rain = 0
KTH1 071549Z 36013KT 03/02 A3043 RMK A01 T00270022  RH  097%=      5-min Rain = 0
KTH1 071550Z 34010KT 03/02 A3042 RMK A01 T00270022  RH  097%=      5-min Rain = 0
KTH1 071551Z 00013G18KT 03/02 A3042 RMK A01 T00270022  RH  097%=      5-min Rain = 0
KTH1 071552Z 36008G13KT 03/02 A3042 RMK A01 T00270022  RH  096%=      5-min Rain = 0
KTH1 071553Z 36009G16KT 03/02 A3042 RMK A01 T00270023  RH  097%=      5-min Rain = 0
KTH1 071554Z 35010G16KT 03/02 A3042 RMK A01 T00270023  RH  097%=      5-min Rain = 0
KTH1 071555Z 35013KT 03/02 A3042 RMK A01 T00270022  RH  097%=      5-min Rain = 0
KTH1 071556Z 35011KT 03/02 A3043 RMK A01 T00270022  RH  096%=      5-min Rain = 0
KTH1 071557Z 36011G18KT 03/02 A3043 RMK A01 T00280023  RH  097%=      5-min Rain = 0
KTH1 071558Z 34012G17KT 03/02 A3043 RMK A01 T00280023  RH  097%=      5-min Rain = 0
KTH1 071559Z 34008G13KT 03/02 A3043 RMK A01 T00290024  RH  097%=      5-min Rain = 0
KTH1 071600Z 33008G13KT 03/03 A3043 RMK A01 T00290025  RH  097%=      5-min Rain = 0
KTH1 071601Z 34011KT 03/03 A3043 RMK A01 T00300025  RH  097%=      5-min Rain = 0
KTH1 071602Z 34012G17KT 03/03 A3043 RMK A01 T00300026  RH  097%=      5-min Rain = 0
KTH1 071603Z 34013G18KT 03/03 A3043 RMK A01 T00290025  RH  097%=      5-min Rain = 0
KTH1 071604Z 35013G19KT 03/02 A3043 RMK A01 T00290024  RH  097%=      5-min Rain = 0
KTH1 071605Z 35012G17KT 03/02 A3043 RMK A01 T00290024  RH  097%=      5-min Rain = 0
KTH1 071606Z 35015G22KT 03/02 A3043 RMK A01 T00280023  RH  097%=      5-min Rain = 0
KTH1 071607Z 35015G20KT 03/02 A3043 RMK A01 T00280023  RH  097%=      5-min Rain = 0
KTH1 071608Z 34012G18KT 03/02 A3043 RMK A01 T00280023  RH  097%=      5-min Rain = 0
KTH1 071609Z 34013G18KT 03/02 A3043 RMK A01 T00280023  RH  097%=      5-min Rain = 0
KTH1 071610Z 35013KT 03/02 A3043 RMK A01 T00280023  RH  097%=      5-min Rain = 0
KTH1 071611Z 35010G17KT 03/02 A3043 RMK A01 T00270022  RH  096%=      5-min Rain = 0
KTH1 071612Z 33014G19KT 03/02 A3043 RMK A01 T00270022  RH  096%=      5-min Rain = 0
KTH1 071613Z 34013G23KT 03/02 A3044 RMK A01 T00270020  RH  096%=      5-min Rain = 0
KTH1 071614Z 35014G20KT 03/02 A3044 RMK A01 T00260020  RH  096%=      5-min Rain = 0
KTH1 071615Z 35014G19KT 03/02 A3044 RMK A01 T00260020  RH  096%=      5-min Rain = 0
KTH1 071616Z 35015G21KT 03/02 A3044 RMK A01 T00260019  RH  096%=      5-min Rain = 0
KTH1 071617Z 34015G22KT 03/02 A3044 RMK A01 T00260019  RH  095%=      5-min Rain = 0
KTH1 071618Z 35016KT 03/02 A3044 RMK A01 T00250018  RH  095%=      5-min Rain = 0
KTH1 071619Z 35016KT 03/02 A3044 RMK A01 T00250018  RH  095%=      5-min Rain = 0
KTH1 071620Z 35015G23KT 03/02 A3043 RMK A01 T00250018  RH  095%=      5-min Rain = 0
KTH1 071621Z 34012G20KT 03/02 A3044 RMK A01 T00250018  RH  095%=      5-min Rain = 0
KTH1 071622Z 35015KT 03/02 A3044 RMK A01 T00250018  RH  095%=      5-min Rain = 0
KTH1 071623Z 35015KT 03/02 A3044 RMK A01 T00250018  RH  095%=      5-min Rain = 0
KTH1 071624Z 34015G22KT 03/02 A3044 RMK A01 T00250018  RH  095%=      5-min Rain = 0
KTH1 071625Z 34014G20KT 03/02 A3044 RMK A01 T00250018  RH  095%=      5-min Rain = 0
KTH1 071626Z 35015G22KT 03/02 A3044 RMK A01 T00250018  RH  095%=      5-min Rain = 0
KTH1 071627Z 34011G21KT 03/02 A3044 RMK A01 T00250017  RH  095%=      5-min Rain = 0
KTH1 071628Z 34013G21KT 03/02 A3043 RMK A01 T00250018  RH  095%=      5-min Rain = 0
KTH1 071629Z 35009G15KT 03/02 A3043 RMK A01 T00250018  RH  095%=      5-min Rain = 0
KTH1 071630Z 34012G19KT 03/02 A3043 RMK A01 T00250018  RH  095%=      5-min Rain = 0
KTH1 071631Z 36010G16KT 03/02 A3043 RMK A01 T00250018  RH  095%=      5-min Rain = 0
KTH1 071632Z 36010KT 03/02 A3043 RMK A01 T00250018  RH  095%=      5-min Rain = 0
KTH1 071633Z 00012G20KT 03/02 A3044 RMK A01 T00260019  RH  095%=      5-min Rain = 0
KTH1 071634Z 36012G20KT 03/02 A3044 RMK A01 T00250017  RH  094%=      5-min Rain = 0
KTH1 071635Z 35013G20KT 03/02 A3044 RMK A01 T00250017  RH  094%=      5-min Rain = 0
KTH1 071636Z 00013G21KT 03/02 A3044 RMK A01 T00250017  RH  094%=      5-min Rain = 0
KTH1 071637Z 00013G19KT 03/02 A3043 RMK A01 T00250016  RH  094%=      5-min Rain = 0
KTH1 071638Z 36012G17KT 03/02 A3043 RMK A01 T00250016  RH  094%=      5-min Rain = 0
KTH1 071639Z 36012KT 03/02 A3044 RMK A01 T00250016  RH  094%=      5-min Rain = 0
KTH1 071640Z 36011KT 03/02 A3044 RMK A01 T00250017  RH  094%=      5-min Rain = 0
KTH1 071641Z 36013G19KT 03/02 A3044 RMK A01 T00250017  RH  094%=      5-min Rain = 0
KTH1 071642Z 01013G18KT 03/02 A3044 RMK A01 T00250017  RH  094%=      5-min Rain = 0
KTH1 071643Z 36009KT 03/02 A3043 RMK A01 T00250017  RH  094%=      5-min Rain = 0
KTH1 071644Z 36008KT 03/02 A3044 RMK A01 T00250017  RH  095%=      5-min Rain = 0
KTH1 071645Z 36011G18KT 03/02 A3044 RMK A01 T00250018  RH  095%=      5-min Rain = 0
KTH1 071646Z 36014G20KT 03/02 A3044 RMK A01 T00250018  RH  095%=      5-min Rain = 0
KTH1 071647Z 00013G20KT 03/02 A3044 RMK A01 T00250017  RH  094%=      5-min Rain = 0
KTH1 071648Z 36013G18KT 03/02 A3044 RMK A01 T00250016  RH  094%=      5-min Rain = 0
KTH1 071649Z 36011G17KT 03/02 A3044 RMK A01 T00250016  RH  094%=      5-min Rain = 0
KTH1 071650Z 36012G18KT 03/02 A3044 RMK A01 T00250016  RH  094%=      5-min Rain = 0
KTH1 071651Z 00013G19KT 03/02 A3044 RMK A01 T00250016  RH  094%=      5-min Rain = 0
KTH1 071652Z 35009G15KT 03/02 A3044 RMK A01 T00250016  RH  094%=      5-min Rain = 0
KTH1 071653Z 35012KT 03/02 A3044 RMK A01 T00250017  RH  095%=      5-min Rain = 0
KTH1 071654Z 36015KT 03/02 A3044 RMK A01 T00250017  RH  095%=      5-min Rain = 0
KTH1 071655Z 36010KT 03/02 A3044 RMK A01 T00250017  RH  094%=      5-min Rain = 0
KTH1 071656Z 35012KT 03/02 A3044 RMK A01 T00250017  RH  095%=      5-min Rain = 0
KTH1 071657Z 35013G18KT 03/02 A3044 RMK A01 T00250017  RH  095%=      5-min Rain = 0
KTH1 071658Z 36013KT 03/02 A3044 RMK A01 T00250016  RH  094%=      5-min Rain = 0
KTH1 071659Z 35009G16KT 03/02 A3044 RMK A01 T00250017  RH  094%=      5-min Rain = 0
KTH1 071700Z 35012G18KT 03/02 A3044 RMK A01 T00260018  RH  095%=      5-min Rain = 0
KTH1 071701Z 00011KT 03/02 A3044 RMK A01 T00260018  RH  094%=      5-min Rain = 0
KTH1 071702Z 35009G14KT 03/02 A3045 RMK A01 T00260018  RH  095%=      5-min Rain = 0
KTH1 071703Z 35014G19KT 03/02 A3045 RMK A01 T00260019  RH  095%=      5-min Rain = 0
KTH1 071704Z 36012G17KT 03/02 A3045 RMK A01 T00260018  RH  094%=      5-min Rain = 0
KTH1 071705Z 35013G18KT 03/02 A3045 RMK A01 T00260017  RH  094%=      5-min Rain = 0
KTH1 071706Z 36013G19KT 03/02 A3045 RMK A01 T00250016  RH  093%=      5-min Rain = 0
KTH1 071707Z 36010KT 03/02 A3045 RMK A01 T00250015  RH  093%=      5-min Rain = 0
KTH1 071708Z 36009G15KT 03/02 A3045 RMK A01 T00250015  RH  093%=      5-min Rain = 0
KTH1 071709Z 35009G15KT 03/02 A3045 RMK A01 T00250015  RH  093%=      5-min Rain = 0
KTH1 071710Z 36009KT 03/02 A3045 RMK A01 T00250016  RH  093%=      5-min Rain = 0
KTH1 071711Z 36009KT 03/02 A3045 RMK A01 T00250016  RH  094%=      5-min Rain = 0
KTH1 071712Z 35009G15KT 03/02 A3045 RMK A01 T00250017  RH  094%=      5-min Rain = 0
KTH1 071713Z 35010G16KT 03/02 A3045 RMK A01 T00250017  RH  094%=      5-min Rain = 0
KTH1 071714Z 35013KT 03/02 A3046 RMK A01 T00250017  RH  094%=      5-min Rain = 0
KTH1 071715Z 35010KT 03/02 A3046 RMK A01 T00250016  RH  093%=      5-min Rain = 0
KTH1 071716Z 35009G14KT 03/02 A3046 RMK A01 T00260016  RH  093%=      5-min Rain = 0
KTH1 071717Z 35009G14KT 03/02 A3046 RMK A01 T00250016  RH  094%=      5-min Rain = 0
KTH1 071718Z 36009KT 03/02 A3046 RMK A01 T00260016  RH  094%=      5-min Rain = 0
KTH1 071719Z 35012KT 03/02 A3046 RMK A01 T00260017  RH  094%=      5-min Rain = 0
KTH1 071720Z 36009G14KT 03/02 A3046 RMK A01 T00260016  RH  093%=      5-min Rain = 0
KTH1 071721Z 35010G15KT 03/02 A3046 RMK A01 T00260016  RH  093%=      5-min Rain = 0
KTH1 071722Z 34010G15KT 03/02 A3046 RMK A01 T00260017  RH  094%=      5-min Rain = 0
KTH1 071723Z 35011KT 03/02 A3046 RMK A01 T00260017  RH  094%=      5-min Rain = 0
KTH1 071724Z 35008G13KT 03/02 A3046 RMK A01 T00260017  RH  094%=      5-min Rain = 0
KTH1 071725Z 34011KT 03/02 A3046 RMK A01 T00260017  RH  094%=      5-min Rain = 0
KTH1 071726Z 34012KT 03/02 A3046 RMK A01 T00260017  RH  093%=      5-min Rain = 0
KTH1 071727Z 35012KT 03/02 A3046 RMK A01 T00260016  RH  093%=      5-min Rain = 0
KTH1 071728Z 34008G13KT 03/02 A3046 RMK A01 T00260016  RH  093%=      5-min Rain = 0
KTH1 071729Z 36011G16KT 03/02 A3046 RMK A01 T00270017  RH  094%=      5-min Rain = 0
KTH1 071730Z 35010KT 03/02 A3046 RMK A01 T00260017  RH  093%=      5-min Rain = 0
KTH1 071731Z 35009KT 03/02 A3046 RMK A01 T00260017  RH  093%=      5-min Rain = 0
KTH1 071732Z 36009KT 03/02 A3046 RMK A01 T00260017  RH  093%=      5-min Rain = 0
KTH1 071733Z 35008KT 03/02 A3046 RMK A01 T00260017  RH  094%=      5-min Rain = 0
KTH1 071734Z 34007KT 03/02 A3046 RMK A01 T00260017  RH  094%=      5-min Rain = 0
KTH1 071735Z 34011KT 03/02 A3046 RMK A01 T00270019  RH  095%=      5-min Rain = 0
KTH1 071736Z 34010G15KT 03/02 A3046 RMK A01 T00270019  RH  095%=      5-min Rain = 0
KTH1 071737Z 33008G14KT 03/02 A3046 RMK A01 T00270020  RH  095%=      5-min Rain = 0
KTH1 071738Z 33010KT 03/02 A3046 RMK A01 T00270020  RH  096%=      5-min Rain = 0
KTH1 071739Z 34008G13KT 03/02 A3045 RMK A01 T00270021  RH  096%=      5-min Rain = 0
KTH1 071740Z 34009KT 03/02 A3045 RMK A01 T00270021  RH  096%=      5-min Rain = 0
KTH1 071741Z 34012G17KT 03/02 A3045 RMK A01 T00270021  RH  096%=      5-min Rain = 0
KTH1 071742Z 36012G17KT 03/02 A3045 RMK A01 T00260020  RH  096%=      5-min Rain = 0
KTH1 071743Z 34012KT 03/02 A3045 RMK A01 T00260019  RH  095%=      5-min Rain = 0
KTH1 071744Z 35012KT 03/02 A3045 RMK A01 T00260019  RH  095%=      5-min Rain = 0
KTH1 071745Z 35013G21KT 03/02 A3045 RMK A01 T00250018  RH  095%=      5-min Rain = 0
KTH1 071746Z 35010G17KT 03/02 A3045 RMK A01 T00250017  RH  095%=      5-min Rain = 0
KTH1 071747Z 34011G17KT 03/02 A3045 RMK A01 T00250018  RH  095%=      5-min Rain = 0
KTH1 071748Z 35011G18KT 03/02 A3045 RMK A01 T00250017  RH  095%=      5-min Rain = 0
KTH1 071749Z 35013G21KT 03/02 A3045 RMK A01 T00250017  RH  095%=      5-min Rain = 0
KTH1 071750Z 34010KT 02/02 A3045 RMK A01 T00240017  RH  095%=      5-min Rain = 0
KTH1 071751Z 35011G18KT 02/02 A3045 RMK A01 T00240016  RH  095%=      5-min Rain = 0
KTH1 071752Z 36013G18KT 02/02 A3044 RMK A01 T00240017  RH  095%=      5-min Rain = 0
KTH1 071753Z 36016KT 02/02 A3044 RMK A01 T00240016  RH  095%=      5-min Rain = 0
KTH1 071754Z 35010KT 02/02 A3044 RMK A01 T00230015  RH  094%=      5-min Rain = 0
KTH1 071755Z 36014KT 02/02 A3044 RMK A01 T00230015  RH  094%=      5-min Rain = 0
KTH1 071756Z 36015G20KT 02/01 A3044 RMK A01 T00230014  RH  094%=      5-min Rain = 0
KTH1 071757Z 36014G19KT 02/01 A3044 RMK A01 T00220013  RH  094%=      5-min Rain = 0
KTH1 071758Z 00013KT 02/01 A3044 RMK A01 T00220013  RH  093%=      5-min Rain = 0
KTH1 071759Z 01009G15KT 02/01 A3044 RMK A01 T00220012  RH  093%=      5-min Rain = 0
KTH1 071800Z 36008KT 02/01 A3044 RMK A01 T00220013  RH  094%=      5-min Rain = 0
KTH1 071801Z 00010G17KT 02/01 A3044 RMK A01 T00220014  RH  094%=      5-min Rain = 0
KTH1 071802Z 36014KT 02/01 A3044 RMK A01 T00220014  RH  094%=      5-min Rain = 0
KTH1 071803Z 00013KT 02/01 A3043 RMK A01 T00220014  RH  094%=      5-min Rain = 0
KTH1 071804Z 00013G18KT 02/01 A3044 RMK A01 T00220014  RH  094%=      5-min Rain = 0
KTH1 071805Z 36012KT 02/01 A3044 RMK A01 T00220014  RH  094%=      5-min Rain = 0
KTH1 071806Z 00009KT 02/01 A3044 RMK A01 T00220014  RH  094%=      5-min Rain = 0
KTH1 071807Z 35009G20KT 02/02 A3044 RMK A01 T00220015  RH  095%=      5-min Rain = 0
KTH1 071808Z 33013KT 02/02 A3044 RMK A01 T00230017  RH  095%=      5-min Rain = 0
KTH1 071809Z 34010G17KT 02/02 A3044 RMK A01 T00230016  RH  095%=      5-min Rain = 0
KTH1 071810Z 35011G17KT 02/02 A3044 RMK A01 T00230016  RH  095%=      5-min Rain = 0
KTH1 071811Z 35015G20KT 02/02 A3044 RMK A01 T00230016  RH  095%=      5-min Rain = 0
KTH1 071812Z 35010KT 02/02 A3044 RMK A01 T00230015  RH  095%=      5-min Rain = 0
KTH1 071813Z 35014G19KT 02/02 A3044 RMK A01 T00230016  RH  095%=      5-min Rain = 0
KTH1 071814Z 35014G19KT 02/02 A3044 RMK A01 T00230015  RH  095%=      5-min Rain = 0
KTH1 071815Z 35015KT 02/02 A3044 RMK A01 T00230016  RH  095%=      5-min Rain = 0
KTH1 071816Z 35012KT 02/02 A3044 RMK A01 T00230015  RH  095%=      5-min Rain = 0
KTH1 071817Z 35017KT 02/02 A3044 RMK A01 T00230015  RH  094%=      5-min Rain = 0
KTH1 071818Z 35013KT 02/01 A3044 RMK A01 T00220013  RH  094%=      5-min Rain = 0
KTH1 071819Z 35011KT 02/01 A3044 RMK A01 T00220013  RH  094%=      5-min Rain = 0
KTH1 071820Z 35010G15KT 02/01 A3043 RMK A01 T00220014  RH  094%=      5-min Rain = 0
KTH1 071821Z 35013G18KT 02/01 A3043 RMK A01 T00230014  RH  094%=      5-min Rain = 0
KTH1 071822Z 35011KT 02/01 A3043 RMK A01 T00230014  RH  094%=      5-min Rain = 0
KTH1 071823Z 00008KT 02/01 A3043 RMK A01 T00230014  RH  094%=      5-min Rain = 0
KTH1 071824Z 00008G15KT 02/02 A3043 RMK A01 T00240015  RH  094%=      5-min Rain = 0
KTH1 071825Z 00011G17KT 02/02 A3043 RMK A01 T00240015  RH  094%=      5-min Rain = 0
KTH1 071826Z 01014G19KT 02/01 A3043 RMK A01 T00240014  RH  093%=      5-min Rain = 0
KTH1 071827Z 00010KT 02/01 A3042 RMK A01 T00230012  RH  093%=      5-min Rain = 0
KTH1 071828Z 00010KT 02/01 A3042 RMK A01 T00230013  RH  093%=      5-min Rain = 0
KTH1 071829Z 00010G15KT 02/01 A3042 RMK A01 T00230013  RH  094%=      5-min Rain = 0
KTH1 071830Z 00013KT 02/01 A3042 RMK A01 T00230014  RH  094%=      5-min Rain = 0
KTH1 071831Z 35011KT 02/01 A3042 RMK A01 T00230014  RH  094%=      5-min Rain = 0
KTH1 071832Z 36009G14KT 02/01 A3042 RMK A01 T00230014  RH  094%=      5-min Rain = 0
KTH1 071833Z 34009KT 02/02 A3042 RMK A01 T00230016  RH  095%=      5-min Rain = 0
KTH1 071834Z 34008G13KT 02/02 A3042 RMK A01 T00240017  RH  095%=      5-min Rain = 0
KTH1 071835Z 34009KT 03/02 A3042 RMK A01 T00250018  RH  096%=      5-min Rain = 0
KTH1 071836Z 34013KT 03/02 A3042 RMK A01 T00250019  RH  096%=      5-min Rain = 0
KTH1 071837Z 35016KT 02/02 A3042 RMK A01 T00240018  RH  095%=      5-min Rain = 0
KTH1 071838Z 34016G21KT 02/02 A3042 RMK A01 T00230016  RH  095%=      5-min Rain = 0
KTH1 071839Z 34013G19KT 02/02 A3042 RMK A01 T00220015  RH  095%=      5-min Rain = 0
KTH1 071840Z 34013G18KT 02/02 A3042 RMK A01 T00220015  RH  095%=      5-min Rain = 0
KTH1 071841Z 34008G13KT 02/02 A3042 RMK A01 T00220016  RH  096%=      5-min Rain = 0
KTH1 071842Z 34010KT 02/02 A3042 RMK A01 T00220016  RH  096%=      5-min Rain = 0
KTH1 071843Z 35015KT 02/02 A3042 RMK A01 T00220016  RH  096%=      5-min Rain = 0
KTH1 071844Z 35011G16KT 02/02 A3042 RMK A01 T00220016  RH  096%=      5-min Rain = 0
KTH1 071845Z 35013G20KT 02/02 A3042 RMK A01 T00220016  RH  096%=      5-min Rain = 0
KTH1 071846Z 35015G21KT 02/02 A3042 RMK A01 T00220016  RH  096%=      5-min Rain = 0
KTH1 071847Z 34017G22KT 02/01 A3042 RMK A01 T00210014  RH  095%=      5-min Rain = 0
KTH1 071848Z 35014KT 02/01 A3042 RMK A01 T00210014  RH  095%=      5-min Rain = 0
KTH1 071849Z 35016G21KT 02/01 A3042 RMK A01 T00210014  RH  095%=      5-min Rain = 0
KTH1 071850Z 34014KT 02/01 A3042 RMK A01 T00210014  RH  095%=      5-min Rain = 0
KTH1 071851Z 35014G20KT 02/01 A3042 RMK A01 T00210013  RH  095%=      5-min Rain = 0
KTH1 071852Z 35011G16KT 02/01 A3042 RMK A01 T00210013  RH  095%=      5-min Rain = 0
KTH1 071853Z 34011G19KT 02/01 A3042 RMK A01 T00210014  RH  095%=      5-min Rain = 0
KTH1 071854Z 35013KT 02/01 A3042 RMK A01 T00210014  RH  095%=      5-min Rain = 0
KTH1 071855Z 35013G19KT 02/01 A3042 RMK A01 T00210014  RH  095%=      5-min Rain = 0
KTH1 071856Z 35011KT 02/01 A3042 RMK A01 T00210014  RH  095%=      5-min Rain = 0
KTH1 071857Z 35015G21KT 02/01 A3042 RMK A01 T00210014  RH  095%=      5-min Rain = 0
KTH1 071858Z 35014G20KT 02/01 A3042 RMK A01 T00210013  RH  095%=      5-min Rain = 0
KTH1 071859Z 35015G20KT 02/01 A3042 RMK A01 T00200012  RH  094%=      5-min Rain = 0
KTH1 071900Z 35010G15KT 02/01 A3042 RMK A01 T00200011  RH  094%=      5-min Rain = 0
KTH1 071901Z 36012G20KT 02/01 A3042 RMK A01 T00200012  RH  095%=      5-min Rain = 0
KTH1 071902Z 36013KT 02/01 A3042 RMK A01 T00200013  RH  095%=      5-min Rain = 0
KTH1 071903Z 35015G21KT 02/01 A3042 RMK A01 T00200012  RH  094%=      5-min Rain = 0
KTH1 071904Z 35014G19KT 02/01 A3042 RMK A01 T00200012  RH  094%=      5-min Rain = 0
KTH1 071905Z 35014G19KT 02/01 A3042 RMK A01 T00200012  RH  094%=      5-min Rain = 0
KTH1 071906Z 35012KT 02/01 A3042 RMK A01 T00200012  RH  094%=      5-min Rain = 0
KTH1 071907Z 35012KT 02/01 A3042 RMK A01 T00200012  RH  094%=      5-min Rain = 0
KTH1 071908Z 35011G21KT 02/01 A3042 RMK A01 T00210013  RH  094%=      5-min Rain = 0
KTH1 071909Z 36013G20KT 02/01 A3042 RMK A01 T00210013  RH  095%=      5-min Rain = 0
KTH1 071910Z 00011G17KT 02/01 A3042 RMK A01 T00200012  RH  094%=      5-min Rain = 0
KTH1 071911Z 36014KT 02/01 A3042 RMK A01 T00200012  RH  094%=      5-min Rain = 0
KTH1 071912Z 36010G15KT 02/01 A3042 RMK A01 T00200012  RH  094%=      5-min Rain = 0
KTH1 071913Z 00009G15KT 02/01 A3041 RMK A01 T00200012  RH  095%=      5-min Rain = 0
KTH1 071914Z 36015KT 02/01 A3041 RMK A01 T00200013  RH  095%=      5-min Rain = 0
KTH1 071915Z 01013G18KT 02/01 A3041 RMK A01 T00200013  RH  095%=      5-min Rain = 0
KTH1 071916Z 01012G17KT 02/01 A3041 RMK A01 T00200012  RH  095%=      5-min Rain = 0
KTH1 071917Z 00011G19KT 02/01 A3041 RMK A01 T00190012  RH  095%=      5-min Rain = 0
KTH1 071918Z 00013G18KT 02/01 A3041 RMK A01 T00190013  RH  095%=      5-min Rain = 0
KTH1 071919Z 00012KT 02/01 A3041 RMK A01 T00190013  RH  095%=      5-min Rain = 0
KTH1 071920Z 36009G15KT 02/01 A3041 RMK A01 T00190013  RH  096%=      5-min Rain = 0
KTH1 071921Z 35015KT 02/01 A3041 RMK A01 T00200014  RH  096%=      5-min Rain = 0
KTH1 071922Z 36013G18KT 02/01 A3041 RMK A01 T00200014  RH  096%=      5-min Rain = 0
KTH1 071923Z 35012KT 02/01 A3041 RMK A01 T00200014  RH  096%=      5-min Rain = 0
KTH1 071924Z 36013G18KT 02/01 A3041 RMK A01 T00210014  RH  096%=      5-min Rain = 0
KTH1 071925Z 00015G21KT 02/01 A304 RMK A01 T00210014  RH  096%=      5-min Rain = 0
KTH1 071926Z 35014G19KT 02/01 A304 RMK A01 T00200013  RH  095%=      5-min Rain = 0
KTH1 071927Z 35013G23KT 02/01 A304 RMK A01 T00210013  RH  095%=      5-min Rain = 0
KTH1 071928Z 34015G23KT 02/01 A304 RMK A01 T00200013  RH  095%=      5-min Rain = 0
KTH1 071929Z 35015KT 02/01 A3041 RMK A01 T00210014  RH  095%=      5-min Rain = 0
KTH1 071930Z 35014G20KT 02/01 A3041 RMK A01 T00210014  RH  095%=      5-min Rain = 0
KTH1 071931Z 35012KT 02/01 A3041 RMK A01 T00210014  RH  095%=      5-min Rain = 0
KTH1 071932Z 35010KT 02/01 A3041 RMK A01 T00210014  RH  095%=      5-min Rain = 0
KTH1 071933Z 35011G16KT 02/02 A3041 RMK A01 T00220016  RH  096%=      5-min Rain = 0
KTH1 071934Z 34010G15KT 02/02 A3041 RMK A01 T00220016  RH  096%=      5-min Rain = 0
KTH1 071935Z 35012G22KT 02/02 A3041 RMK A01 T00220016  RH  096%=      5-min Rain = 0
KTH1 071936Z 35016G23KT 02/02 A3041 RMK A01 T00220016  RH  096%=      5-min Rain = 0
KTH1 071937Z 35013G19KT 02/02 A3041 RMK A01 T00210015  RH  095%=      5-min Rain = 0
KTH1 071938Z 35011G19KT 02/01 A3041 RMK A01 T00210014  RH  095%=      5-min Rain = 0
KTH1 071939Z 36010G15KT 02/02 A3041 RMK A01 T00210015  RH  096%=      5-min Rain = 0
KTH1 071940Z 00015G22KT 02/02 A3041 RMK A01 T00210015  RH  096%=      5-min Rain = 0
KTH1 071941Z 35013G18KT 02/01 A3041 RMK A01 T00210014  RH  095%=      5-min Rain = 0
KTH1 071942Z 35014G19KT 02/01 A3041 RMK A01 T00210014  RH  095%=      5-min Rain = 0
KTH1 071943Z 36012G19KT 02/01 A3041 RMK A01 T00200013  RH  095%=      5-min Rain = 0
KTH1 071944Z 36016KT 02/01 A3041 RMK A01 T00200013  RH  095%=      5-min Rain = 0
KTH1 071945Z 36015G21KT 02/01 A3041 RMK A01 T00200012  RH  095%=      5-min Rain = 0
KTH1 071946Z 35017KT 02/01 A3041 RMK A01 T00200012  RH  095%=      5-min Rain = 0
KTH1 071947Z 35012G17KT 02/01 A3041 RMK A01 T00200012  RH  095%=      5-min Rain = 0
KTH1 071948Z 35012KT 02/01 A3041 RMK A01 T00200012  RH  095%=      5-min Rain = 0
KTH1 071949Z 35010G15KT 02/01 A3042 RMK A01 T00200012  RH  095%=      5-min Rain = 0
KTH1 071950Z 36014G22KT 02/01 A3042 RMK A01 T00200013  RH  095%=      5-min Rain = 0
KTH1 071951Z 36015G20KT 02/01 A3042 RMK A01 T00200012  RH  095%=      5-min Rain = 0
KTH1 071952Z 36015KT 02/01 A3042 RMK A01 T00200012  RH  095%=      5-min Rain = 0
KTH1 071953Z 36017G22KT 02/01 A3042 RMK A01 T00200012  RH  094%=      5-min Rain = 0
KTH1 071954Z 01014G19KT 02/01 A3041 RMK A01 T00200011  RH  094%=      5-min Rain = 0.01
KTH1 071955Z 36012G17KT 02/01 A3041 RMK A01 T00200011  RH  094%=      5-min Rain = 0
KTH1 071956Z 00011G16KT 02/01 A3041 RMK A01 T00190010  RH  094%=      5-min Rain = 0
KTH1 071957Z 35010KT 02/01 A3041 RMK A01 T00190011  RH  094%=      5-min Rain = 0
KTH1 071958Z 36010KT 02/01 A3041 RMK A01 T00190011  RH  094%=      5-min Rain = 0
KTH1 071959Z 35016G21KT 02/01 A3041 RMK A01 T00200012  RH  095%=      5-min Rain = 0
KTH1 072000Z 35013G18KT 02/01 A3041 RMK A01 T00190012  RH  094%=      5-min Rain = 0
KTH1 072001Z 35012G18KT 02/01 A3041 RMK A01 T00190011  RH  094%=      5-min Rain = 0
KTH1 072002Z 34012G18KT 02/01 A3041 RMK A01 T00190011  RH  095%=      5-min Rain = 0
KTH1 072003Z 35013KT 02/01 A304 RMK A01 T00190012  RH  095%=      5-min Rain = 0
KTH1 072004Z 34012KT 02/01 A304 RMK A01 T00190012  RH  095%=      5-min Rain = 0
KTH1 072005Z 34010G19KT 02/01 A304 RMK A01 T00190012  RH  095%=      5-min Rain = 0
KTH1 072006Z 35015G20KT 02/01 A304 RMK A01 T00190012  RH  095%=      5-min Rain = 0
KTH1 072007Z 35011G17KT 02/01 A304 RMK A01 T00190012  RH  095%=      5-min Rain = 0
KTH1 072008Z 35013G19KT 02/01 A3039 RMK A01 T00190012  RH  095%=      5-min Rain = 0
KTH1 072009Z 00011G17KT 02/01 A304 RMK A01 T00180011  RH  095%=      5-min Rain = 0
KTH1 072010Z 00014G20KT 02/01 A304 RMK A01 T00190011  RH  095%=      5-min Rain = 0
KTH1 072011Z 35015G20KT 02/01 A304 RMK A01 T00180011  RH  095%=      5-min Rain = 0
KTH1 072012Z 36012G18KT 02/01 A304 RMK A01 T00190011  RH  095%=      5-min Rain = 0
KTH1 072013Z 35012G17KT 02/01 A304 RMK A01 T00180011  RH  095%=      5-min Rain = 0
KTH1 072014Z 36015G20KT 02/01 A304 RMK A01 T00190011  RH  095%=      5-min Rain = 0
KTH1 072015Z 36012G22KT 02/01 A304 RMK A01 T00190011  RH  095%=      5-min Rain = 0
KTH1 072016Z 36011G17KT 02/01 A304 RMK A01 T00190011  RH  095%=      5-min Rain = 0
KTH1 072017Z 36011KT 02/01 A304 RMK A01 T00190011  RH  095%=      5-min Rain = 0
KTH1 072018Z 36011KT 02/01 A304 RMK A01 T00190011  RH  095%=      5-min Rain = 0
KTH1 072019Z 01007KT 02/01 A3041 RMK A01 T00190012  RH  095%=      5-min Rain = 0
KTH1 072020Z 01010G15KT 02/01 A3041 RMK A01 T00200013  RH  095%=      5-min Rain = 0
KTH1 072021Z 36010G16KT 02/01 A3041 RMK A01 T00200013  RH  095%=      5-min Rain = 0
KTH1 072022Z 36011KT 02/01 A3041 RMK A01 T00200013  RH  095%=      5-min Rain = 0
KTH1 072023Z 36013KT 02/01 A3041 RMK A01 T00200013  RH  095%=      5-min Rain = 0
KTH1 072024Z 35012KT 02/01 A3041 RMK A01 T00200013  RH  095%=      5-min Rain = 0
KTH1 072025Z 35015G22KT 02/01 A3041 RMK A01 T00200012  RH  094%=      5-min Rain = 0
KTH1 072026Z 36016G22KT 02/01 A3041 RMK A01 T00200011  RH  094%=      5-min Rain = 0
KTH1 072027Z 00012G17KT 02/01 A3041 RMK A01 T00200011  RH  094%=      5-min Rain = 0
KTH1 072028Z 36009G15KT 02/01 A304 RMK A01 T00200011  RH  094%=      5-min Rain = 0
KTH1 072029Z 01008G13KT 02/01 A304 RMK A01 T00200011  RH  094%=      5-min Rain = 0
KTH1 072030Z 01011G17KT 02/01 A304 RMK A01 T00200012  RH  094%=      5-min Rain = 0
KTH1 072031Z 01012G17KT 02/01 A3041 RMK A01 T00200012  RH  094%=      5-min Rain = 0
KTH1 072032Z 36010G17KT 02/01 A3041 RMK A01 T00200011  RH  094%=      5-min Rain = 0
KTH1 072033Z 36011KT 02/01 A3041 RMK A01 T00200012  RH  094%=      5-min Rain = 0
KTH1 072034Z 35014KT 02/01 A3041 RMK A01 T00200012  RH  095%=      5-min Rain = 0
KTH1 072035Z 35013G18KT 02/01 A304 RMK A01 T00200012  RH  095%=      5-min Rain = 0
KTH1 072036Z 35012G19KT 02/01 A304 RMK A01 T00200012  RH  095%=      5-min Rain = 0
KTH1 072037Z 36014G19KT 02/01 A304 RMK A01 T00200012  RH  094%=      5-min Rain = 0
KTH1 072038Z 00010KT 02/01 A304 RMK A01 T00200012  RH  094%=      5-min Rain = 0
KTH1 072039Z 36012G17KT 02/01 A304 RMK A01 T00200012  RH  094%=      5-min Rain = 0
KTH1 072040Z 36017KT 02/01 A304 RMK A01 T00200012  RH  094%=      5-min Rain = 0
KTH1 072041Z 36010G16KT 02/01 A304 RMK A01 T00200011  RH  094%=      5-min Rain = 0
KTH1 072042Z 36012G17KT 02/01 A304 RMK A01 T00200012  RH  094%=      5-min Rain = 0
KTH1 072043Z 35009G14KT 02/01 A304 RMK A01 T00200012  RH  094%=      5-min Rain = 0
KTH1 072044Z 36011G16KT 02/01 A304 RMK A01 T00200011  RH  094%=      5-min Rain = 0
KTH1 072045Z 36012G17KT 02/01 A304 RMK A01 T00210012  RH  094%=      5-min Rain = 0
KTH1 072046Z 00011G16KT 02/01 A3041 RMK A01 T00200011  RH  094%=      5-min Rain = 0
KTH1 072047Z 00012G17KT 02/01 A3041 RMK A01 T00200012  RH  094%=      5-min Rain = 0
KTH1 072048Z 01012KT 02/01 A3041 RMK A01 T00200011  RH  094%=      5-min Rain = 0
KTH1 072049Z 00013KT 02/01 A3041 RMK A01 T00200010  RH  093%=      5-min Rain = 0
KTH1 072050Z 01007KT 02/01 A3042 RMK A01 T00200010  RH  093%=      5-min Rain = 0
KTH1 072051Z 35007G13KT 02/01 A3042 RMK A01 T00200010  RH  093%=      5-min Rain = 0
KTH1 072052Z 00010KT 02/01 A3042 RMK A01 T00210011  RH  093%=      5-min Rain = 0
KTH1 072053Z 36011KT 02/01 A3041 RMK A01 T00210011  RH  093%=      5-min Rain = 0
KTH1 072054Z 35008G15KT 02/01 A3041 RMK A01 T00210011  RH  093%=      5-min Rain = 0
KTH1 072055Z 36009G14KT 02/01 A3041 RMK A01 T00210011  RH  093%=      5-min Rain = 0
KTH1 072056Z 35009KT 02/01 A3041 RMK A01 T00210011  RH  093%=      5-min Rain = 0
KTH1 072057Z 00008G14KT 02/01 A3041 RMK A01 T00210011  RH  093%=      5-min Rain = 0
KTH1 072058Z 36011G16KT 02/01 A3042 RMK A01 T00210011  RH  093%=      5-min Rain = 0
KTH1 072059Z 35011KT 02/01 A3042 RMK A01 T00210011  RH  093%=      5-min Rain = 0
KTH1 072100Z 00010KT 02/01 A3042 RMK A01 T00210011  RH  093%=      5-min Rain = 0
KTH1 072101Z 00006KT 02/01 A3042 RMK A01 T00210010  RH  093%=      5-min Rain = 0
KTH1 072102Z 35007KT 02/01 A3042 RMK A01 T00210011  RH  093%=      5-min Rain = 0
KTH1 072103Z 35009KT 02/01 A3042 RMK A01 T00210011  RH  093%=      5-min Rain = 0
KTH1 072104Z 35009G14KT 02/01 A3041 RMK A01 T00210012  RH  093%=      5-min Rain = 0
KTH1 072105Z 35009KT 02/01 A3042 RMK A01 T00210012  RH  094%=      5-min Rain = 0
KTH1 072106Z 35011KT 02/01 A3042 RMK A01 T00210012  RH  093%=      5-min Rain = 0
KTH1 072107Z 00012KT 02/01 A3042 RMK A01 T00210011  RH  093%=      5-min Rain = 0
KTH1 072108Z 35010G17KT 02/01 A3042 RMK A01 T00210010  RH  093%=      5-min Rain = 0
KTH1 072109Z 36013KT 02/01 A3042 RMK A01 T00210010  RH  093%=      5-min Rain = 0
KTH1 072110Z 35010KT 02/01 A3042 RMK A01 T00210010  RH  092%=      5-min Rain = 0
KTH1 072111Z 34010G16KT 02/01 A3043 RMK A01 T00210010  RH  093%=      5-min Rain = 0
KTH1 072112Z 33009G15KT 02/01 A3043 RMK A01 T00210011  RH  093%=      5-min Rain = 0
KTH1 072113Z 34013KT 02/01 A3043 RMK A01 T00210011  RH  093%=      5-min Rain = 0
KTH1 072114Z 34011G16KT 02/01 A3043 RMK A01 T00210010  RH  093%=      5-min Rain = 0
KTH1 072115Z 35010G15KT 02/01 A3043 RMK A01 T00210010  RH  093%=      5-min Rain = 0
KTH1 072116Z 35011G16KT 02/01 A3043 RMK A01 T00210011  RH  093%=      5-min Rain = 0
KTH1 072117Z 35012G18KT 02/01 A3042 RMK A01 T00210011  RH  093%=      5-min Rain = 0
KTH1 072118Z 35014KT 02/01 A3042 RMK A01 T00210009  RH  092%=      5-min Rain = 0
KTH1 072119Z 35014G21KT 02/01 A3042 RMK A01 T00200007  RH  091%=      5-min Rain = 0
KTH1 072120Z 35010KT 02/01 A3042 RMK A01 T00200007  RH  091%=      5-min Rain = 0
KTH1 072121Z 35011G16KT 02/01 A3042 RMK A01 T00200007  RH  092%=      5-min Rain = 0
KTH1 072122Z 34012KT 02/01 A3042 RMK A01 T00200008  RH  092%=      5-min Rain = 0
KTH1 072123Z 34011KT 02/01 A3042 RMK A01 T00200008  RH  092%=      5-min Rain = 0
KTH1 072124Z 34010G16KT 02/01 A3043 RMK A01 T00200008  RH  092%=      5-min Rain = 0
KTH1 072125Z 34014KT 02/01 A3043 RMK A01 T00200007  RH  091%=      5-min Rain = 0
KTH1 072126Z 33010G15KT 02/01 A3043 RMK A01 T00200007  RH  091%=      5-min Rain = 0
KTH1 072127Z 34012KT 02/01 A3043 RMK A01 T00200007  RH  091%=      5-min Rain = 0
KTH1 072128Z 35009G15KT 02/01 A3043 RMK A01 T00200007  RH  091%=      5-min Rain = 0
KTH1 072129Z 36007G15KT 02/01 A3042 RMK A01 T00200008  RH  092%=      5-min Rain = 0
KTH1 072130Z 36014G20KT 02/01 A3042 RMK A01 T00200008  RH  092%=      5-min Rain = 0
KTH1 072131Z 35014KT 02/01 A3042 RMK A01 T00200007  RH  091%=      5-min Rain = 0
KTH1 072132Z 36014KT 02/01 A3042 RMK A01 T00200006  RH  090%=      5-min Rain = 0
KTH1 072133Z 35015KT 02/01 A3042 RMK A01 T00200006  RH  090%=      5-min Rain = 0
KTH1 072134Z 36013KT 02/01 A3042 RMK A01 T00200005  RH  090%=      5-min Rain = 0
KTH1 072135Z 35007G13KT 02/01 A3042 RMK A01 T00200006  RH  090%=      5-min Rain = 0
KTH1 072136Z 36009KT 02/01 A3042 RMK A01 T00200007  RH  091%=      5-min Rain = 0
KTH1 072137Z 36006KT 02/01 A3042 RMK A01 T00200008  RH  091%=      5-min Rain = 0
KTH1 072138Z 36010G17KT 02/01 A3042 RMK A01 T00210009  RH  092%=      5-min Rain = 0
KTH1 072139Z 35012G18KT 02/01 A3043 RMK A01 T00210008  RH  091%=      5-min Rain = 0
KTH1 072140Z 35012KT 02/01 A3043 RMK A01 T00210007  RH  091%=      5-min Rain = 0
KTH1 072141Z 35012KT 02/01 A3043 RMK A01 T00210007  RH  091%=      5-min Rain = 0
KTH1 072142Z 34011KT 02/01 A3043 RMK A01 T00200007  RH  091%=      5-min Rain = 0
KTH1 072143Z 35009KT 02/01 A3043 RMK A01 T00200007  RH  091%=      5-min Rain = 0
KTH1 072144Z 35012KT 02/01 A3043 RMK A01 T00200008  RH  091%=      5-min Rain = 0
KTH1 072145Z 35010G16KT 02/01 A3043 RMK A01 T00200008  RH  091%=      5-min Rain = 0
KTH1 072146Z 36013G18KT 02/01 A3043 RMK A01 T00200007  RH  091%=      5-min Rain = 0
KTH1 072147Z 35015KT 02/01 A3043 RMK A01 T00200005  RH  090%=      5-min Rain = 0
KTH1 072148Z 35010G15KT 02/00 A3043 RMK A01 T00190004  RH  090%=      5-min Rain = 0
KTH1 072149Z 35012G17KT 02/01 A3043 RMK A01 T00190005  RH  090%=      5-min Rain = 0
KTH1 072150Z 35009KT 02/01 A3043 RMK A01 T00200005  RH  090%=      5-min Rain = 0
KTH1 072151Z 35010KT 02/01 A3043 RMK A01 T00200005  RH  090%=      5-min Rain = 0
KTH1 072152Z 36011KT 02/00 A3043 RMK A01 T00190004  RH  089%=      5-min Rain = 0
KTH1 072153Z 36012KT 02/00 A3043 RMK A01 T00190003  RH  089%=      5-min Rain = 0
KTH1 072154Z 35009KT 02/00 A3043 RMK A01 T00180002  RH  089%=      5-min Rain = 0
KTH1 072155Z 36009KT 02/00 A3043 RMK A01 T00180003  RH  090%=      5-min Rain = 0
KTH1 072156Z 35007KT 02/00 A3043 RMK A01 T00180004  RH  090%=      5-min Rain = 0
KTH1 072157Z 36009G14KT 02/01 A3043 RMK A01 T00190006  RH  091%=      5-min Rain = 0
KTH1 072158Z 35012G18KT 02/01 A3043 RMK A01 T00190005  RH  091%=      5-min Rain = 0
KTH1 072159Z 36012KT 02/00 A3043 RMK A01 T00190004  RH  090%=      5-min Rain = 0
KTH1 072200Z 36011KT 02/00 A3043 RMK A01 T00190004  RH  090%=      5-min Rain = 0
KTH1 072201Z 35009KT 02/00 A3043 RMK A01 T00190004  RH  090%=      5-min Rain = 0
KTH1 072202Z 35007KT 02/01 A3043 RMK A01 T00190005  RH  090%=      5-min Rain = 0
KTH1 072203Z 35009KT 02/01 A3043 RMK A01 T00200006  RH  091%=      5-min Rain = 0
KTH1 072204Z 35009G14KT 02/01 A3043 RMK A01 T00200005  RH  090%=      5-min Rain = 0
KTH1 072205Z 36009KT 02/01 A3043 RMK A01 T00200006  RH  091%=      5-min Rain = 0
KTH1 072206Z 36009KT 02/01 A3043 RMK A01 T00200005  RH  090%=      5-min Rain = 0
KTH1 072207Z 00011KT 02/00 A3043 RMK A01 T00200004  RH  090%=      5-min Rain = 0
KTH1 072208Z 36011KT 02/00 A3043 RMK A01 T00190003  RH  089%=      5-min Rain = 0
KTH1 072209Z 35012KT 02/00 A3042 RMK A01 T00190003  RH  089%=      5-min Rain = 0
KTH1 072210Z 34008KT 02/00 A3042 RMK A01 T00190004  RH  090%=      5-min Rain = 0
KTH1 072211Z 36011G16KT 02/00 A3042 RMK A01 T00190004  RH  090%=      5-min Rain = 0
KTH1 072212Z 00010KT 02/01 A3042 RMK A01 T00190005  RH  090%=      5-min Rain = 0
KTH1 072213Z 35009G14KT 02/00 A3042 RMK A01 T00190004  RH  090%=      5-min Rain = 0
KTH1 072214Z 36010KT 02/00 A3042 RMK A01 T00190004  RH  090%=      5-min Rain = 0
KTH1 072215Z 00011KT 02/00 A3042 RMK A01 T00190003  RH  089%=      5-min Rain = 0
KTH1 072216Z 00007G12KT 02/00 A3042 RMK A01 T00190003  RH  089%=      5-min Rain = 0
KTH1 072217Z 36011G18KT 02/00 A3042 RMK A01 T00190003  RH  089%=      5-min Rain = 0
KTH1 072218Z 36011G17KT 02/00 A3042 RMK A01 T00190003  RH  089%=      5-min Rain = 0
KTH1 072219Z 36010KT 02/00 A3041 RMK A01 T00190002  RH  089%=      5-min Rain = 0
KTH1 072220Z 36013KT 02/00 A3041 RMK A01 T00190002  RH  089%=      5-min Rain = 0
KTH1 072221Z 00008KT 02/00 A3041 RMK A01 T00190002  RH  088%=      5-min Rain = 0
KTH1 072222Z 00011KT 02/00 A3041 RMK A01 T00190003  RH  089%=      5-min Rain = 0
KTH1 072223Z 36009KT 02/00 A3041 RMK A01 T00190003  RH  089%=      5-min Rain = 0
KTH1 072224Z 01006KT 02/00 A3041 RMK A01 T00190004  RH  089%=      5-min Rain = 0
KTH1 072225Z 01006KT 02/00 A3041 RMK A01 T00190004  RH  089%=      5-min Rain = 0
KTH1 072226Z 00005G10KT 02/01 A3042 RMK A01 T00200005  RH  090%=      5-min Rain = 0
KTH1 072227Z 00010G15KT 02/01 A3042 RMK A01 T00200005  RH  090%=      5-min Rain = 0
KTH1 072228Z 35008G14KT 02/00 A3042 RMK A01 T00200004  RH  089%=      5-min Rain = 0
KTH1 072229Z 00010KT 02/00 A3042 RMK A01 T00200004  RH  089%=      5-min Rain = 0
KTH1 072230Z 35007KT 02/00 A3042 RMK A01 T00200004  RH  089%=      5-min Rain = 0
KTH1 072231Z 35009KT 02/00 A3042 RMK A01 T00210004  RH  089%=      5-min Rain = 0
KTH1 072232Z 35011KT 02/00 A3042 RMK A01 T00200004  RH  089%=      5-min Rain = 0
KTH1 072233Z 35010G15KT 02/00 A3042 RMK A01 T00200004  RH  089%=      5-min Rain = 0
KTH1 072234Z 00009KT 02/00 A3042 RMK A01 T00200004  RH  089%=      5-min Rain = 0
KTH1 072235Z 36008G14KT 02/00 A3042 RMK A01 T00210004  RH  089%=      5-min Rain = 0
KTH1 072236Z 36005G10KT 02/01 A3042 RMK A01 T00200005  RH  089%=      5-min Rain = 0
KTH1 072237Z 36008KT 02/01 A3042 RMK A01 T00210006  RH  090%=      5-min Rain = 0
KTH1 072238Z 35008KT 02/01 A3042 RMK A01 T00210005  RH  089%=      5-min Rain = 0
KTH1 072239Z 35006KT 02/01 A3042 RMK A01 T00210006  RH  090%=      5-min Rain = 0
KTH1 072240Z 36004KT 02/01 A3042 RMK A01 T00210007  RH  090%=      5-min Rain = 0
KTH1 072241Z 35009KT 02/01 A3042 RMK A01 T00220008  RH  091%=      5-min Rain = 0
KTH1 072242Z 34008KT 02/01 A3043 RMK A01 T00220007  RH  090%=      5-min Rain = 0
KTH1 072243Z 34006G11KT 02/01 A3043 RMK A01 T00220007  RH  090%=      5-min Rain = 0
KTH1 072244Z 34010KT 02/01 A3043 RMK A01 T00220007  RH  090%=      5-min Rain = 0
KTH1 072245Z 35010KT 02/01 A3043 RMK A01 T00220007  RH  090%=      5-min Rain = 0
KTH1 072246Z 35010KT 02/01 A3043 RMK A01 T00220007  RH  090%=      5-min Rain = 0
KTH1 072247Z 35010KT 02/01 A3043 RMK A01 T00220006  RH  090%=      5-min Rain = 0
KTH1 072248Z 34010KT 02/01 A3043 RMK A01 T00220007  RH  090%=      5-min Rain = 0
KTH1 072249Z 36008KT 02/01 A3044 RMK A01 T00220007  RH  090%=      5-min Rain = 0
KTH1 072250Z 36007KT 02/01 A3043 RMK A01 T00220007  RH  090%=      5-min Rain = 0
KTH1 072251Z 35007KT 02/01 A3043 RMK A01 T00220007  RH  090%=      5-min Rain = 0
KTH1 072252Z 36008KT 02/01 A3043 RMK A01 T00220008  RH  090%=      5-min Rain = 0
KTH1 072253Z 34007G13KT 02/01 A3043 RMK A01 T00220008  RH  090%=      5-min Rain = 0
KTH1 072254Z 35009KT 02/01 A3043 RMK A01 T00220008  RH  090%=      5-min Rain = 0
KTH1 072255Z 34009KT 02/01 A3043 RMK A01 T00220008  RH  091%=      5-min Rain = 0
KTH1 072256Z 35007KT 02/01 A3043 RMK A01 T00220009  RH  091%=      5-min Rain = 0
KTH1 072257Z 35007KT 02/01 A3043 RMK A01 T00220009  RH  091%=      5-min Rain = 0
KTH1 072258Z 35009KT 02/01 A3043 RMK A01 T00220009  RH  091%=      5-min Rain = 0
KTH1 072259Z 35009G14KT 02/01 A3043 RMK A01 T00220009  RH  091%=      5-min Rain = 0
KTH1 072300Z 35012KT 02/01 A3043 RMK A01 T00220009  RH  091%=      5-min Rain = 0
KTH1 072301Z 00009G14KT 02/01 A3043 RMK A01 T00220009  RH  091%=      5-min Rain = 0
KTH1 072302Z 36010KT 02/01 A3043 RMK A01 T00220009  RH  091%=      5-min Rain = 0
KTH1 072303Z 35012KT 02/01 A3043 RMK A01 T00220009  RH  091%=      5-min Rain = 0
KTH1 072304Z 34011G16KT 02/01 A3043 RMK A01 T00220009  RH  091%=      5-min Rain = 0
KTH1 072305Z 35011KT 02/01 A3043 RMK A01 T00220009  RH  091%=      5-min Rain = 0
KTH1 072306Z 35010KT 02/01 A3043 RMK A01 T00220008  RH  091%=      5-min Rain = 0
KTH1 072307Z 35010G15KT 02/01 A3043 RMK A01 T00210008  RH  091%=      5-min Rain = 0
KTH1 072308Z 35011KT 02/01 A3043 RMK A01 T00210008  RH  091%=      5-min Rain = 0
KTH1 072309Z 36010G15KT 02/01 A3043 RMK A01 T00210007  RH  090%=      5-min Rain = 0
KTH1 072310Z 36009KT 02/01 A3044 RMK A01 T00210006  RH  090%=      5-min Rain = 0
KTH1 072311Z 35009G14KT 02/01 A3044 RMK A01 T00210007  RH  091%=      5-min Rain = 0
KTH1 072312Z 35006KT 02/01 A3044 RMK A01 T00210008  RH  091%=      5-min Rain = 0
KTH1 072313Z 35008KT 02/01 A3044 RMK A01 T00210009  RH  092%=      5-min Rain = 0
KTH1 072314Z 34007KT 02/01 A3044 RMK A01 T00210009  RH  092%=      5-min Rain = 0
KTH1 072315Z 35009KT 02/01 A3044 RMK A01 T00210009  RH  092%=      5-min Rain = 0
KTH1 072316Z 36010KT 02/01 A3044 RMK A01 T00210009  RH  092%=      5-min Rain = 0
KTH1 072317Z 35010G16KT 02/01 A3044 RMK A01 T00210008  RH  091%=      5-min Rain = 0
KTH1 072318Z 35012KT 02/01 A3044 RMK A01 T00210007  RH  091%=      5-min Rain = 0
KTH1 072319Z 35012KT 02/01 A3044 RMK A01 T00200006  RH  090%=      5-min Rain = 0
KTH1 072320Z 35009G15KT 02/01 A3044 RMK A01 T00200005  RH  090%=      5-min Rain = 0
KTH1 072321Z 35012KT 02/01 A3044 RMK A01 T00190005  RH  090%=      5-min Rain = 0
KTH1 072322Z 35010KT 02/00 A3044 RMK A01 T00190004  RH  090%=      5-min Rain = 0
KTH1 072323Z 35011KT 02/01 A3044 RMK A01 T00190005  RH  090%=      5-min Rain = 0
KTH1 072324Z 01007G15KT 02/00 A3043 RMK A01 T00190004  RH  090%=      5-min Rain = 0
KTH1 072325Z 00007KT 02/00 A3043 RMK A01 T00190004  RH  090%=      5-min Rain = 0
KTH1 072326Z 01009KT 02/00 A3043 RMK A01 T00190004  RH  090%=      5-min Rain = 0
KTH1 072327Z 36007KT 02/00 A3043 RMK A01 T00190004  RH  090%=      5-min Rain = 0
KTH1 072328Z 36008G13KT 02/00 A3043 RMK A01 T00190004  RH  090%=      5-min Rain = 0
KTH1 072329Z 36009KT 02/01 A3043 RMK A01 T00190005  RH  090%=      5-min Rain = 0
KTH1 072330Z 00010KT 02/01 A3043 RMK A01 T00190005  RH  090%=      5-min Rain = 0
KTH1 072331Z 00007KT 02/00 A3043 RMK A01 T00190004  RH  090%=      5-min Rain = 0
KTH1 072332Z 36008KT 02/00 A3043 RMK A01 T00190004  RH  090%=      5-min Rain = 0
KTH1 072333Z 36007KT 02/00 A3043 RMK A01 T00190004  RH  090%=      5-min Rain = 0
KTH1 072334Z 00009KT 02/00 A3043 RMK A01 T00190004  RH  090%=      5-min Rain = 0
KTH1 072335Z 35008KT 02/00 A3043 RMK A01 T00190004  RH  090%=      5-min Rain = 0
KTH1 072336Z 35006KT 02/00 A3043 RMK A01 T00180004  RH  090%=      5-min Rain = 0
KTH1 072337Z 36006KT 02/01 A3043 RMK A01 T00190005  RH  091%=      5-min Rain = 0
KTH1 072338Z 36007KT 02/01 A3044 RMK A01 T00190006  RH  091%=      5-min Rain = 0
KTH1 072339Z 35011KT 02/01 A3044 RMK A01 T00190006  RH  091%=      5-min Rain = 0
KTH1 072340Z 36011KT 02/01 A3044 RMK A01 T00190005  RH  090%=      5-min Rain = 0
KTH1 072341Z 36009KT 02/00 A3044 RMK A01 T00190004  RH  090%=      5-min Rain = 0
KTH1 072342Z 35007G12KT 02/01 A3044 RMK A01 T00190005  RH  090%=      5-min Rain = 0
KTH1 072343Z 35009KT 02/01 A3044 RMK A01 T00190005  RH  091%=      5-min Rain = 0
KTH1 072344Z 35009KT 02/01 A3044 RMK A01 T00190005  RH  090%=      5-min Rain = 0
KTH1 072345Z 00006KT 02/01 A3044 RMK A01 T00190005  RH  090%=      5-min Rain = 0
KTH1 072346Z 36008KT 02/01 A3044 RMK A01 T00190005  RH  091%=      5-min Rain = 0
KTH1 072347Z 35006KT 02/01 A3044 RMK A01 T00190006  RH  091%=      5-min Rain = 0
KTH1 072348Z 35009G14KT 02/01 A3044 RMK A01 T00190006  RH  091%=      5-min Rain = 0
KTH1 072349Z 36008KT 02/01 A3044 RMK A01 T00190006  RH  091%=      5-min Rain = 0
KTH1 072350Z 36007KT 02/01 A3044 RMK A01 T00200006  RH  091%=      5-min Rain = 0
KTH1 072351Z 35006KT 02/01 A3044 RMK A01 T00190007  RH  091%=      5-min Rain = 0
KTH1 072352Z 35009G14KT 02/01 A3044 RMK A01 T00200007  RH  091%=      5-min Rain = 0
KTH1 072353Z 35012KT 02/01 A3044 RMK A01 T00190007  RH  091%=      5-min Rain = 0
KTH1 072354Z 35007KT 02/01 A3044 RMK A01 T00190006  RH  091%=      5-min Rain = 0
KTH1 072355Z 00007G13KT 02/01 A3044 RMK A01 T00190006  RH  091%=      5-min Rain = 0
KTH1 072356Z 01007KT 02/01 A3044 RMK A01 T00200006  RH  091%=      5-min Rain = 0
KTH1 072357Z 35008G13KT 02/01 A3044 RMK A01 T00190006  RH  091%=      5-min Rain = 0
KTH1 072358Z 36011KT 02/01 A3044 RMK A01 T00190006  RH  091%=      5-min Rain = 0
KTH1 072359Z 35011KT 02/01 A3044 RMK A01 T00190005  RH  090%=      5-min Rain = 0
KTH1 080000Z 01008G13KT 02/00 A3044 RMK A01 T00190004  RH  090%=      5-min Rain = 0
KTH1 080001Z 36009KT 02/00 A3044 RMK A01 T00190004  RH  090%=      5-min Rain = 0
KTH1 080002Z 35008KT 02/01 A3044 RMK A01 T00190005  RH  090%=      5-min Rain = 0
KTH1 080003Z 35011KT 02/01 A3044 RMK A01 T00190005  RH  090%=      5-min Rain = 0
KTH1 080004Z 35011KT 02/01 A3044 RMK A01 T00190005  RH  090%=      5-min Rain = 0
KTH1 080005Z 35010KT 02/00 A3044 RMK A01 T00190004  RH  090%=      5-min Rain = 0
KTH1 080006Z 36007G13KT 02/01 A3044 RMK A01 T00190005  RH  090%=      5-min Rain = 0
KTH1 080007Z 36010G15KT 02/01 A3044 RMK A01 T00190005  RH  090%=      5-min Rain = 0
KTH1 080008Z 35010KT 02/01 A3044 RMK A01 T00190005  RH  090%=      5-min Rain = 0
KTH1 080009Z 35011KT 02/01 A3044 RMK A01 T00190005  RH  090%=      5-min Rain = 0
KTH1 080010Z 35008G13KT 02/01 A3044 RMK A01 T00190005  RH  090%=      5-min Rain = 0
KTH1 080011Z 35009KT 02/01 A3045 RMK A01 T00190005  RH  090%=      5-min Rain = 0
KTH1 080012Z 35011KT 02/01 A3045 RMK A01 T00190005  RH  091%=      5-min Rain = 0
KTH1 080013Z 35012KT 02/01 A3045 RMK A01 T00190005  RH  090%=      5-min Rain = 0
KTH1 080014Z 35009KT 02/00 A3045 RMK A01 T00190004  RH  090%=      5-min Rain = 0
KTH1 080015Z 35009KT 02/01 A3045 RMK A01 T00190005  RH  090%=      5-min Rain = 0
KTH1 080016Z 35008KT 02/01 A3045 RMK A01 T00190006  RH  091%=      5-min Rain = 0
KTH1 080017Z 34008KT 02/01 A3045 RMK A01 T00190006  RH  091%=      5-min Rain = 0
KTH1 080018Z 36007KT 02/01 A3045 RMK A01 T00200007  RH  091%=      5-min Rain = 0
KTH1 080019Z 35006KT 02/01 A3045 RMK A01 T00200007  RH  091%=      5-min Rain = 0
KTH1 080020Z 34007KT 02/01 A3045 RMK A01 T00200008  RH  091%=      5-min Rain = 0
KTH1 080021Z 35007KT 02/01 A3045 RMK A01 T00200008  RH  092%=      5-min Rain = 0
KTH1 080022Z 34007KT 02/01 A3045 RMK A01 T00200008  RH  092%=      5-min Rain = 0
KTH1 080023Z 34008KT 02/01 A3045 RMK A01 T00200009  RH  092%=      5-min Rain = 0
KTH1 080024Z 35006KT 02/01 A3045 RMK A01 T00200009  RH  092%=      5-min Rain = 0
KTH1 080025Z 33006KT 02/01 A3045 RMK A01 T00200009  RH  092%=      5-min Rain = 0
KTH1 080026Z 33006G11KT 02/01 A3045 RMK A01 T00210009  RH  092%=      5-min Rain = 0
KTH1 080027Z 34011KT 02/01 A3045 RMK A01 T00200009  RH  092%=      5-min Rain = 0
KTH1 080028Z 35011KT 02/01 A3045 RMK A01 T00200006  RH  091%=      5-min Rain = 0
KTH1 080029Z 35012G19KT 02/01 A3046 RMK A01 T00190005  RH  090%=      5-min Rain = 0
KTH1 080030Z 34013KT 02/00 A3046 RMK A01 T00190003  RH  089%=      5-min Rain = 0
KTH1 080031Z 34010G15KT 02/00 A3046 RMK A01 T00190002  RH  089%=      5-min Rain = 0
KTH1 080032Z 35014KT 02/00 A3046 RMK A01 T00190002  RH  088%=      5-min Rain = 0
KTH1 080033Z 35012KT 02/00 A3046 RMK A01 T00190001  RH  088%=      5-min Rain = 0
KTH1 080034Z 36011KT 02/00 A3045 RMK A01 T00190001  RH  088%=      5-min Rain = 0
KTH1 080035Z 36009G14KT 02/00 A3045 RMK A01 T00180001  RH  088%=      5-min Rain = 0
KTH1 080036Z 35009G14KT 02/00 A3046 RMK A01 T00190001  RH  088%=      5-min Rain = 0
KTH1 080037Z 36010G15KT 02/00 A3046 RMK A01 T00180001  RH  088%=      5-min Rain = 0
KTH1 080038Z 35009KT 02/00 A3046 RMK A01 T00180000  RH  088%=      5-min Rain = 0
KTH1 080039Z 36011KT 02/00 A3046 RMK A01 T00180001  RH  088%=      5-min Rain = 0
KTH1 080040Z 36012KT 02/00 A3046 RMK A01 T00180001  RH  088%=      5-min Rain = 0
KTH1 080041Z 35011KT 02/00 A3046 RMK A01 T00180000  RH  088%=      5-min Rain = 0
KTH1 080042Z 35008KT 02/00 A3046 RMK A01 T00180001  RH  088%=      5-min Rain = 0
KTH1 080043Z 35009KT 02/00 A3046 RMK A01 T00180001  RH  089%=      5-min Rain = 0
KTH1 080044Z 35008KT 02/00 A3046 RMK A01 T00180002  RH  089%=      5-min Rain = 0
KTH1 080045Z 35010KT 02/00 A3046 RMK A01 T00180002  RH  089%=      5-min Rain = 0
KTH1 080046Z 35008KT 02/00 A3046 RMK A01 T00180002  RH  089%=      5-min Rain = 0
KTH1 080047Z 35006KT 02/00 A3046 RMK A01 T00180002  RH  089%=      5-min Rain = 0
KTH1 080048Z 36008KT 02/00 A3046 RMK A01 T00180003  RH  090%=      5-min Rain = 0
KTH1 080049Z 00007KT 02/00 A3046 RMK A01 T00180004  RH  090%=      5-min Rain = 0
KTH1 080050Z 35008KT 02/00 A3046 RMK A01 T00180003  RH  090%=      5-min Rain = 0
KTH1 080051Z 35009KT 02/00 A3046 RMK A01 T00180004  RH  090%=      5-min Rain = 0
KTH1 080052Z 36008G13KT 02/00 A3046 RMK A01 T00180003  RH  090%=      5-min Rain = 0
KTH1 080053Z 35008KT 02/00 A3046 RMK A01 T00180003  RH  090%=      5-min Rain = 0
KTH1 080054Z 35008KT 02/00 A3046 RMK A01 T00180003  RH  089%=      5-min Rain = 0
KTH1 080055Z 00006KT 02/00 A3046 RMK A01 T00180003  RH  089%=      5-min Rain = 0
KTH1 080056Z 35008KT 02/00 A3046 RMK A01 T00190002  RH  089%=      5-min Rain = 0
KTH1 080057Z 35010KT 02/00 A3046 RMK A01 T00180001  RH  088%=      5-min Rain = 0
KTH1 080058Z 35009KT 02/00 A3046 RMK A01 T00180001  RH  088%=      5-min Rain = 0
KTH1 080059Z 36011KT 02/00 A3046 RMK A01 T00190001  RH  088%=      5-min Rain = 0
KTH1 080100Z 35012KT 02/00 A3045 RMK A01 T001800-0  RH  088%=      5-min Rain = 0
KTH1 080101Z 35009KT 02/M00 A3045 RMK A01 T00181001  RH  087%=      5-min Rain = 0
KTH1 080102Z 34007KT 02/00 A3045 RMK A01 T00180000  RH  088%=      5-min Rain = 0
KTH1 080103Z 35009KT 02/00 A3045 RMK A01 T00180001  RH  089%=      5-min Rain = 0
KTH1 080104Z 35006KT 02/00 A3045 RMK A01 T00180002  RH  089%=      5-min Rain = 0
KTH1 080105Z 34008KT 02/00 A3046 RMK A01 T00190003  RH  089%=      5-min Rain = 0
KTH1 080106Z 35008KT 02/00 A3046 RMK A01 T00190003  RH  090%=      5-min Rain = 0
KTH1 080107Z 34006KT 02/00 A3046 RMK A01 T00190003  RH  090%=      5-min Rain = 0
KTH1 080108Z 34008KT 02/00 A3046 RMK A01 T00190004  RH  090%=      5-min Rain = 0
KTH1 080109Z 35010KT 02/00 A3046 RMK A01 T00190004  RH  090%=      5-min Rain = 0
KTH1 080110Z 34010KT 02/00 A3046 RMK A01 T00190003  RH  089%=      5-min Rain = 0
KTH1 080111Z 34009KT 02/00 A3046 RMK A01 T00190003  RH  089%=      5-min Rain = 0
KTH1 080112Z 35007G12KT 02/00 A3046 RMK A01 T00190003  RH  089%=      5-min Rain = 0
KTH1 080113Z 35008KT 02/00 A3046 RMK A01 T00190004  RH  090%=      5-min Rain = 0
KTH1 080114Z 35010KT 02/00 A3046 RMK A01 T00190004  RH  090%=      5-min Rain = 0
KTH1 080115Z 35010KT 02/00 A3046 RMK A01 T00190003  RH  089%=      5-min Rain = 0
KTH1 080116Z 35012KT 02/00 A3046 RMK A01 T00190003  RH  089%=      5-min Rain = 0
KTH1 080117Z 36008KT 02/00 A3046 RMK A01 T00190003  RH  089%=      5-min Rain = 0
KTH1 080118Z 36008KT 02/00 A3046 RMK A01 T00190003  RH  089%=      5-min Rain = 0
KTH1 080119Z 36009KT 02/00 A3046 RMK A01 T00190003  RH  089%=      5-min Rain = 0
KTH1 080120Z 36010KT 02/00 A3046 RMK A01 T00190002  RH  089%=      5-min Rain = 0
KTH1 080121Z 36006KT 02/00 A3046 RMK A01 T00190002  RH  088%=      5-min Rain = 0
KTH1 080122Z 35010KT 02/00 A3046 RMK A01 T00190002  RH  088%=      5-min Rain = 0
KTH1 080123Z 35008KT 02/00 A3046 RMK A01 T00190001  RH  088%=      5-min Rain = 0
KTH1 080124Z 00010KT 02/00 A3046 RMK A01 T00190001  RH  088%=      5-min Rain = 0
KTH1 080125Z 35008G13KT 02/00 A3046 RMK A01 T001900-0  RH  087%=      5-min Rain = 0
KTH1 080126Z 35008G13KT 02/00 A3046 RMK A01 T001900-0  RH  087%=      5-min Rain = 0
KTH1 080127Z 35009KT 02/00 A3046 RMK A01 T001900-0  RH  087%=      5-min Rain = 0
KTH1 080128Z 36010KT 02/00 A3046 RMK A01 T001900-0  RH  087%=      5-min Rain = 0
KTH1 080129Z 36008KT 02/M00 A3046 RMK A01 T00191001  RH  087%=      5-min Rain = 0
KTH1 080130Z 35008KT 02/00 A3046 RMK A01 T001900-0  RH  087%=      5-min Rain = 0
KTH1 080131Z 00010G15KT 02/M00 A3046 RMK A01 T00191001  RH  087%=      5-min Rain = 0
KTH1 080132Z 35006KT 02/M00 A3046 RMK A01 T00191001  RH  086%=      5-min Rain = 0
KTH1 080133Z 35006G11KT 02/00 A3046 RMK A01 T00190001  RH  088%=      5-min Rain = 0
KTH1 080134Z 35008KT 02/00 A3046 RMK A01 T00200002  RH  088%=      5-min Rain = 0
KTH1 080135Z 36009KT 02/00 A3046 RMK A01 T00200001  RH  087%=      5-min Rain = 0
KTH1 080136Z 36007KT 02/00 A3046 RMK A01 T001900-0  RH  087%=      5-min Rain = 0
KTH1 080137Z 35008KT 02/00 A3046 RMK A01 T001900-0  RH  087%=      5-min Rain = 0
KTH1 080138Z 36011KT 02/00 A3046 RMK A01 T00200000  RH  087%=      5-min Rain = 0
KTH1 080139Z 36011KT 02/M00 A3046 RMK A01 T00191001  RH  086%=      5-min Rain = 0
KTH1 080140Z 36008KT 02/M00 A3046 RMK A01 T00201001  RH  086%=      5-min Rain = 0
KTH1 080141Z 35010KT 02/00 A3046 RMK A01 T002000-0  RH  087%=      5-min Rain = 0
KTH1 080142Z 36008KT 02/00 A3046 RMK A01 T002000-0  RH  087%=      5-min Rain = 0
KTH1 080143Z 35007KT 02/00 A3046 RMK A01 T00190000  RH  087%=      5-min Rain = 0
KTH1 080144Z 35007KT 02/00 A3046 RMK A01 T00200001  RH  087%=      5-min Rain = 0
KTH1 080145Z 35005KT 02/00 A3046 RMK A01 T00200001  RH  088%=      5-min Rain = 0
KTH1 080146Z 01009KT 02/00 A3046 RMK A01 T00200002  RH  088%=      5-min Rain = 0
KTH1 080147Z 35009G14KT 02/00 A3046 RMK A01 T00200001  RH  087%=      5-min Rain = 0
KTH1 080148Z 35010G15KT 02/00 A3046 RMK A01 T00200000  RH  087%=      5-min Rain = 0
KTH1 080149Z 35007KT 02/00 A3045 RMK A01 T00200001  RH  087%=      5-min Rain = 0
KTH1 080150Z 01006G11KT 02/00 A3045 RMK A01 T00200002  RH  088%=      5-min Rain = 0
KTH1 080151Z 36010KT 02/00 A3045 RMK A01 T00200001  RH  087%=      5-min Rain = 0
KTH1 080152Z 36011KT 02/00 A3045 RMK A01 T00200000  RH  087%=      5-min Rain = 0
KTH1 080153Z 35009KT 02/00 A3045 RMK A01 T00200000  RH  087%=      5-min Rain = 0
KTH1 080154Z 35009KT 02/00 A3045 RMK A01 T00200000  RH  087%=      5-min Rain = 0
KTH1 080155Z 36011KT 02/M00 A3045 RMK A01 T00201001  RH  086%=      5-min Rain = 0
KTH1 080156Z 35010KT 02/M00 A3045 RMK A01 T00201001  RH  086%=      5-min Rain = 0
KTH1 080157Z 36009KT 02/M00 A3045 RMK A01 T00201002  RH  085%=      5-min Rain = 0
KTH1 080158Z 36008KT 02/M00 A3045 RMK A01 T00201002  RH  085%=      5-min Rain = 0
KTH1 080159Z 35008KT 02/M00 A3045 RMK A01 T00201003  RH  085%=      5-min Rain = 0
KTH1 080200Z 36009G15KT 02/M00 A3045 RMK A01 T00201002  RH  085%=      5-min Rain = 0
KTH1 080201Z 00010KT 02/M00 A3045 RMK A01 T00201003  RH  085%=      5-min Rain = 0
KTH1 080202Z 35010KT 02/M00 A3046 RMK A01 T00201003  RH  085%=      5-min Rain = 0
KTH1 080203Z 36008KT 02/M00 A3046 RMK A01 T00201004  RH  084%=      5-min Rain = 0
KTH1 080204Z 36008KT 02/M00 A3046 RMK A01 T00201003  RH  085%=      5-min Rain = 0
KTH1 080205Z 36008KT 02/M00 A3046 RMK A01 T00201003  RH  085%=      5-min Rain = 0
KTH1 080206Z 35007KT 02/M00 A3046 RMK A01 T00201003  RH  085%=      5-min Rain = 0
KTH1 080207Z 00009G14KT 02/M00 A3046 RMK A01 T00201002  RH  085%=      5-min Rain = 0
KTH1 080208Z 35008KT 02/M00 A3046 RMK A01 T00211003  RH  085%=      5-min Rain = 0
KTH1 080209Z 35009KT 02/M00 A3046 RMK A01 T00201003  RH  085%=      5-min Rain = 0
KTH1 080210Z 36012G17KT 02/M00 A3046 RMK A01 T00201003  RH  085%=      5-min Rain = 0
KTH1 080211Z 01011G17KT 02/M00 A3046 RMK A01 T00211003  RH  084%=      5-min Rain = 0
KTH1 080212Z 00009KT 02/M00 A3046 RMK A01 T00201004  RH  084%=      5-min Rain = 0
KTH1 080213Z 36008KT 02/M00 A3046 RMK A01 T00201004  RH  084%=      5-min Rain = 0
KTH1 080214Z 00012G17KT 02/M00 A3046 RMK A01 T00201003  RH  084%=      5-min Rain = 0
KTH1 080215Z 36010KT 02/M00 A3046 RMK A01 T00201003  RH  084%=      5-min Rain = 0
KTH1 080216Z 00011G17KT 02/M00 A3045 RMK A01 T00201003  RH  084%=      5-min Rain = 0
KTH1 080217Z 36009G14KT 02/M00 A3045 RMK A01 T00201003  RH  084%=      5-min Rain = 0
KTH1 080218Z 00006KT 02/M00 A3045 RMK A01 T00211003  RH  085%=      5-min Rain = 0
KTH1 080219Z 36010KT 02/M00 A3045 RMK A01 T00201003  RH  085%=      5-min Rain = 0
KTH1 080220Z 00009G14KT 02/M00 A3045 RMK A01 T00201003  RH  085%=      5-min Rain = 0
KTH1 080221Z 00008KT 02/M00 A3045 RMK A01 T00201003  RH  085%=      5-min Rain = 0
KTH1 080222Z 01010KT 02/M00 A3045 RMK A01 T00201003  RH  085%=      5-min Rain = 0
KTH1 080223Z 36007KT 02/M00 A3045 RMK A01 T00201003  RH  085%=      5-min Rain = 0
KTH1 080224Z 00009G15KT 02/M00 A3045 RMK A01 T00201003  RH  085%=      5-min Rain = 0
KTH1 080225Z 36008KT 02/M00 A3045 RMK A01 T00201003  RH  085%=      5-min Rain = 0
KTH1 080226Z 36010KT 02/M00 A3045 RMK A01 T00201003  RH  085%=      5-min Rain = 0
KTH1 080227Z 01010G15KT 02/M00 A3045 RMK A01 T00201004  RH  084%=      5-min Rain = 0
KTH1 080228Z 01011KT 02/M01 A3045 RMK A01 T00201005  RH  084%=      5-min Rain = 0
KTH1 080229Z 00008KT 02/M01 A3045 RMK A01 T00201005  RH  083%=      5-min Rain = 0
KTH1 080230Z 02006KT 02/M00 A3045 RMK A01 T00201004  RH  084%=      5-min Rain = 0
KTH1 080231Z 36007KT 02/M00 A3045 RMK A01 T00201003  RH  085%=      5-min Rain = 0
KTH1 080232Z 36007G15KT 02/M00 A3045 RMK A01 T00201003  RH  085%=      5-min Rain = 0
KTH1 080233Z 01008KT 02/M00 A3046 RMK A01 T00201003  RH  085%=      5-min Rain = 0
KTH1 080234Z 00005G10KT 02/M00 A3046 RMK A01 T00201004  RH  084%=      5-min Rain = 0
KTH1 080235Z 36009KT 02/M00 A3046 RMK A01 T00201004  RH  084%=      5-min Rain = 0
KTH1 080236Z 35008KT 02/M01 A3046 RMK A01 T00201006  RH  083%=      5-min Rain = 0
KTH1 080237Z 35008KT 02/M01 A3046 RMK A01 T00201006  RH  083%=      5-min Rain = 0
KTH1 080238Z 35008KT 02/M01 A3046 RMK A01 T00201006  RH  083%=      5-min Rain = 0
KTH1 080239Z 35008KT 02/M01 A3046 RMK A01 T00201007  RH  082%=      5-min Rain = 0
KTH1 080240Z 35009G14KT 02/M01 A3046 RMK A01 T00201008  RH  082%=      5-min Rain = 0
KTH1 080241Z 35005G11KT 02/M01 A3046 RMK A01 T00201009  RH  081%=      5-min Rain = 0
KTH1 080242Z 34008KT 02/M01 A3046 RMK A01 T00201008  RH  081%=      5-min Rain = 0
KTH1 080243Z 36010KT 02/M01 A3046 RMK A01 T00201008  RH  081%=      5-min Rain = 0
KTH1 080244Z 35010KT 02/M01 A3047 RMK A01 T00201009  RH  081%=      5-min Rain = 0
KTH1 080245Z 35007G12KT 02/M01 A3047 RMK A01 T00211008  RH  081%=      5-min Rain = 0
KTH1 080246Z 35010KT 02/M01 A3047 RMK A01 T00211008  RH  081%=      5-min Rain = 0
KTH1 080247Z 35010G15KT 02/M01 A3047 RMK A01 T00201010  RH  081%=      5-min Rain = 0
KTH1 080248Z 35007G12KT 02/M01 A3047 RMK A01 T00201010  RH  080%=      5-min Rain = 0
KTH1 080249Z 01007KT 02/M01 A3047 RMK A01 T00201010  RH  080%=      5-min Rain = 0
KTH1 080250Z 36008KT 02/M01 A3047 RMK A01 T00201010  RH  080%=      5-min Rain = 0
KTH1 080251Z 36008KT 02/M01 A3047 RMK A01 T00211009  RH  080%=      5-min Rain = 0
KTH1 080252Z 36007KT 02/M01 A3047 RMK A01 T00211008  RH  081%=      5-min Rain = 0
KTH1 080253Z 35009KT 02/M01 A3047 RMK A01 T00211008  RH  081%=      5-min Rain = 0
KTH1 080254Z 35005KT 02/M01 A3047 RMK A01 T00211008  RH  081%=      5-min Rain = 0
KTH1 080255Z 35011KT 02/M01 A3047 RMK A01 T00211007  RH  082%=      5-min Rain = 0
KTH1 080256Z 35008KT 02/M01 A3047 RMK A01 T00211008  RH  081%=      5-min Rain = 0
KTH1 080257Z 00008KT 02/M01 A3047 RMK A01 T00211008  RH  081%=      5-min Rain = 0
KTH1 080258Z 36009KT 02/M01 A3047 RMK A01 T00211008  RH  081%=      5-min Rain = 0
KTH1 080259Z 35008KT 02/M01 A3047 RMK A01 T00211008  RH  081%=      5-min Rain = 0
KTH1 080300Z 35006KT 02/M01 A3047 RMK A01 T00211007  RH  081%=      5-min Rain = 0
KTH1 080301Z 35009KT 02/M01 A3047 RMK A01 T00211006  RH  082%=      5-min Rain = 0
KTH1 080302Z 35010KT 02/M01 A3047 RMK A01 T00211008  RH  081%=      5-min Rain = 0
KTH1 080303Z 36009KT 02/M01 A3047 RMK A01 T00211008  RH  081%=      5-min Rain = 0
KTH1 080304Z 36010G15KT 02/M01 A3047 RMK A01 T00211008  RH  081%=      5-min Rain = 0
KTH1 080305Z 35008G13KT 02/M01 A3047 RMK A01 T00211009  RH  080%=      5-min Rain = 0
KTH1 080306Z 35010G15KT 02/M01 A3047 RMK A01 T00211008  RH  081%=      5-min Rain = 0
KTH1 080307Z 36009G14KT 02/M01 A3047 RMK A01 T00211009  RH  080%=      5-min Rain = 0
KTH1 080308Z 36010KT 02/M01 A3047 RMK A01 T00211009  RH  080%=      5-min Rain = 0
KTH1 080309Z 36006KT 02/M01 A3047 RMK A01 T00211009  RH  081%=      5-min Rain = 0
KTH1 080310Z 35009KT 02/M01 A3047 RMK A01 T00211008  RH  081%=      5-min Rain = 0
KTH1 080311Z 35007KT 02/M01 A3047 RMK A01 T00211008  RH  081%=      5-min Rain = 0
KTH1 080312Z 36008KT 02/M01 A3047 RMK A01 T00221007  RH  081%=      5-min Rain = 0
KTH1 080313Z 00006KT 02/M01 A3047 RMK A01 T00221006  RH  082%=      5-min Rain = 0
KTH1 080314Z 36007G12KT 02/M01 A3047 RMK A01 T00221006  RH  082%=      5-min Rain = 0
KTH1 080315Z 36009KT 02/M01 A3047 RMK A01 T00221007  RH  081%=      5-min Rain = 0
KTH1 080316Z 01005KT 02/M01 A3047 RMK A01 T00221008  RH  081%=      5-min Rain = 0
KTH1 080317Z 00005KT 02/M01 A3047 RMK A01 T00221007  RH  081%=      5-min Rain = 0
KTH1 080318Z 01005KT 02/M01 A3047 RMK A01 T00221007  RH  081%=      5-min Rain = 0
KTH1 080319Z 00004KT 02/M01 A3047 RMK A01 T00221006  RH  082%=      5-min Rain = 0
KTH1 080320Z 00006KT 02/M01 A3047 RMK A01 T00221006  RH  082%=      5-min Rain = 0
KTH1 080321Z 36006KT 02/M01 A3048 RMK A01 T00221007  RH  081%=      5-min Rain = 0
KTH1 080322Z 36006KT 02/M01 A3048 RMK A01 T00221007  RH  081%=      5-min Rain = 0
KTH1 080323Z 01008KT 02/M01 A3048 RMK A01 T00221007  RH  081%=      5-min Rain = 0
KTH1 080324Z 35006KT 02/M01 A3048 RMK A01 T00221007  RH  081%=      5-min Rain = 0
KTH1 080325Z 35006KT 02/M01 A3048 RMK A01 T00221006  RH  081%=      5-min Rain = 0
KTH1 080326Z 00006KT 02/M01 A3048 RMK A01 T00221007  RH  081%=      5-min Rain = 0
KTH1 080327Z 01008KT 02/M01 A3048 RMK A01 T00221006  RH  081%=      5-min Rain = 0
KTH1 080328Z 36010KT 02/M01 A3048 RMK A01 T00221008  RH  080%=      5-min Rain = 0
KTH1 080329Z 36008KT 02/M01 A3048 RMK A01 T00221008  RH  080%=      5-min Rain = 0
KTH1 080330Z 36008KT 02/M01 A3048 RMK A01 T00221008  RH  080%=      5-min Rain = 0
KTH1 080331Z 01007G13KT 02/M01 A3048 RMK A01 T00221009  RH  080%=      5-min Rain = 0
KTH1 080332Z 36005KT 02/M01 A3048 RMK A01 T00221009  RH  080%=      5-min Rain = 0
KTH1 080333Z 36005KT 02/M01 A3048 RMK A01 T00221008  RH  080%=      5-min Rain = 0
KTH1 080334Z 00007KT 02/M01 A3048 RMK A01 T00221008  RH  081%=      5-min Rain = 0
KTH1 080335Z 36008KT 02/M01 A3048 RMK A01 T00221008  RH  080%=      5-min Rain = 0
KTH1 080336Z 36008KT 02/M01 A3048 RMK A01 T00221009  RH  080%=      5-min Rain = 0
KTH1 080337Z 36005KT 02/M01 A3048 RMK A01 T00221009  RH  080%=      5-min Rain = 0
KTH1 080338Z 36005KT 02/M01 A3048 RMK A01 T00231007  RH  081%=      5-min Rain = 0
KTH1 080339Z 35006KT 02/M01 A3048 RMK A01 T00231006  RH  082%=      5-min Rain = 0
KTH1 080340Z 36009KT 02/M01 A3048 RMK A01 T00231008  RH  080%=      5-min Rain = 0
KTH1 080341Z 35007KT 02/M01 A3048 RMK A01 T00231008  RH  080%=      5-min Rain = 0
KTH1 080342Z 00005KT 02/M01 A3048 RMK A01 T00231008  RH  080%=      5-min Rain = 0
KTH1 080343Z 00006KT 02/M01 A3048 RMK A01 T00231007  RH  080%=      5-min Rain = 0
KTH1 080344Z 36008KT 02/M01 A3048 RMK A01 T00231007  RH  081%=      5-min Rain = 0
KTH1 080345Z 00005KT 02/M01 A3048 RMK A01 T00231008  RH  080%=      5-min Rain = 0
KTH1 080346Z 00006KT 02/M01 A3048 RMK A01 T00231008  RH  080%=      5-min Rain = 0
KTH1 080347Z 35005KT 02/M01 A3048 RMK A01 T00231008  RH  080%=      5-min Rain = 0
KTH1 080348Z 34006KT 02/M01 A3048 RMK A01 T00231008  RH  080%=      5-min Rain = 0
KTH1 080349Z 35005KT 02/M01 A3048 RMK A01 T00231007  RH  080%=      5-min Rain = 0
KTH1 080350Z 36005KT 02/M01 A3048 RMK A01 T00231007  RH  080%=      5-min Rain = 0
KTH1 080351Z 36005KT 02/M01 A3048 RMK A01 T00231007  RH  081%=      5-min Rain = 0
KTH1 080352Z 00006KT 02/M01 A3048 RMK A01 T00231008  RH  080%=      5-min Rain = 0
KTH1 080353Z 01007KT 02/M01 A3048 RMK A01 T00231009  RH  079%=      5-min Rain = 0
KTH1 080354Z 00005KT 02/M01 A3048 RMK A01 T00231009  RH  079%=      5-min Rain = 0
KTH1 080355Z 36006KT 02/M01 A3048 RMK A01 T00231009  RH  079%=      5-min Rain = 0
KTH1 080356Z 00006KT 02/M01 A3048 RMK A01 T00231009  RH  079%=      5-min Rain = 0
KTH1 080357Z 36006KT 02/M01 A3048 RMK A01 T00231009  RH  079%=      5-min Rain = 0
KTH1 080358Z 36006KT 02/M01 A3048 RMK A01 T00231009  RH  079%=      5-min Rain = 0
KTH1 080359Z 01008KT 02/M01 A3048 RMK A01 T00231009  RH  079%=      5-min Rain = 0
KTH1 080400Z 01006KT 02/M01 A3048 RMK A01 T00231011  RH  078%=      5-min Rain = 0
KTH1 080401Z 01007KT 02/M01 A3048 RMK A01 T00231010  RH  079%=      5-min Rain = 0
KTH1 080402Z 01007KT 02/M01 A3048 RMK A01 T00231011  RH  078%=      5-min Rain = 0
KTH1 080403Z 00006KT 02/M01 A3048 RMK A01 T00231011  RH  078%=      5-min Rain = 0
KTH1 080404Z 00005KT 02/M01 A3048 RMK A01 T00231010  RH  079%=      5-min Rain = 0
KTH1 080405Z 36005KT 02/M01 A3048 RMK A01 T00231009  RH  080%=      5-min Rain = 0
KTH1 080406Z 01005KT 02/M01 A3048 RMK A01 T00231008  RH  080%=      5-min Rain = 0
KTH1 080407Z 36005KT 02/M01 A3048 RMK A01 T00231008  RH  080%=      5-min Rain = 0
KTH1 080408Z 36006KT 02/M01 A3048 RMK A01 T00231008  RH  080%=      5-min Rain = 0
KTH1 080409Z 35008KT 02/M01 A3048 RMK A01 T00231008  RH  080%=      5-min Rain = 0
KTH1 080410Z 00006KT 02/M01 A3048 RMK A01 T00231009  RH  079%=      5-min Rain = 0
KTH1 080411Z 35005KT 02/M01 A3048 RMK A01 T00231008  RH  080%=      5-min Rain = 0
KTH1 080412Z 35006KT 02/M01 A3048 RMK A01 T00231007  RH  080%=      5-min Rain = 0
KTH1 080413Z 35006KT 02/M01 A3048 RMK A01 T00231007  RH  081%=      5-min Rain = 0
KTH1 080414Z 35006KT 02/M01 A3048 RMK A01 T00231006  RH  081%=      5-min Rain = 0
KTH1 080415Z 00006KT 02/M01 A3048 RMK A01 T00231006  RH  081%=      5-min Rain = 0
KTH1 080416Z 35007KT 02/M01 A3048 RMK A01 T00231007  RH  081%=      5-min Rain = 0
KTH1 080417Z 36006KT 02/M01 A3048 RMK A01 T00231007  RH  081%=      5-min Rain = 0
KTH1 080418Z 35005KT 02/M01 A3048 RMK A01 T00231007  RH  081%=      5-min Rain = 0
KTH1 080419Z 35005KT 02/M01 A3048 RMK A01 T00231006  RH  081%=      5-min Rain = 0
KTH1 080420Z 34005KT 02/M01 A3048 RMK A01 T00231005  RH  081%=      5-min Rain = 0
KTH1 080421Z 34005KT 02/M01 A3048 RMK A01 T00231005  RH  082%=      5-min Rain = 0
KTH1 080422Z 35005KT 02/M01 A3048 RMK A01 T00231006  RH  081%=      5-min Rain = 0
KTH1 080423Z 34006KT 02/M01 A3048 RMK A01 T00231006  RH  081%=      5-min Rain = 0
KTH1 080424Z 35005KT 02/M01 A3048 RMK A01 T00231006  RH  081%=      5-min Rain = 0
KTH1 080425Z 00008KT 02/M01 A3048 RMK A01 T00231007  RH  081%=      5-min Rain = 0
KTH1 080426Z 35006KT 02/M01 A3048 RMK A01 T00231007  RH  080%=      5-min Rain = 0
KTH1 080427Z 35006KT 02/M01 A3049 RMK A01 T00231007  RH  081%=      5-min Rain = 0
KTH1 080428Z 36008KT 02/M01 A3049 RMK A01 T00231008  RH  080%=      5-min Rain = 0
KTH1 080429Z 35007KT 02/M01 A3049 RMK A01 T00231008  RH  080%=      5-min Rain = 0
KTH1 080430Z 34006KT 02/M01 A3049 RMK A01 T00231008  RH  080%=      5-min Rain = 0
KTH1 080431Z 35005KT 02/M01 A3048 RMK A01 T00231007  RH  080%=      5-min Rain = 0
KTH1 080432Z 35004KT 02/M01 A3048 RMK A01 T00231006  RH  081%=      5-min Rain = 0
KTH1 080433Z 35005KT 02/M01 A3048 RMK A01 T00231006  RH  081%=      5-min Rain = 0
KTH1 080434Z 36006KT 02/M01 A3048 RMK A01 T00231006  RH  081%=      5-min Rain = 0
KTH1 080435Z 36005KT 02/M01 A3048 RMK A01 T00231006  RH  081%=      5-min Rain = 0
KTH1 080436Z 35007KT 02/M01 A3048 RMK A01 T00231006  RH  081%=      5-min Rain = 0
KTH1 080437Z 36005G10KT 02/M01 A3048 RMK A01 T00231007  RH  081%=      5-min Rain = 0
KTH1 080438Z 36006KT 02/M01 A3048 RMK A01 T00231008  RH  080%=      5-min Rain = 0
KTH1 080439Z 35005KT 02/M01 A3048 RMK A01 T00231008  RH  080%=      5-min Rain = 0
KTH1 080440Z 35007KT 02/M01 A3048 RMK A01 T00231008  RH  080%=      5-min Rain = 0
KTH1 080441Z 36006KT 02/M01 A3048 RMK A01 T00231009  RH  080%=      5-min Rain = 0
KTH1 080442Z 36005KT 02/M01 A3048 RMK A01 T00231009  RH  079%=      5-min Rain = 0
KTH1 080443Z 35005KT 02/M01 A3048 RMK A01 T00231008  RH  080%=      5-min Rain = 0
KTH1 080444Z 34008KT 02/M01 A3048 RMK A01 T00241008  RH  080%=      5-min Rain = 0
KTH1 080445Z 36009KT 02/M01 A3048 RMK A01 T00241009  RH  079%=      5-min Rain = 0
KTH1 080446Z 35007KT 02/M01 A3048 RMK A01 T00241010  RH  078%=      5-min Rain = 0
KTH1 080447Z 35007KT 02/M01 A3048 RMK A01 T00241009  RH  079%=      5-min Rain = 0
KTH1 080448Z 35006KT 02/M01 A3048 RMK A01 T00231010  RH  079%=      5-min Rain = 0
KTH1 080449Z 35007KT 02/M01 A3048 RMK A01 T00241009  RH  079%=      5-min Rain = 0
KTH1 080450Z 36006KT 02/M01 A3048 RMK A01 T00231010  RH  079%=      5-min Rain = 0
KTH1 080451Z 00007KT 02/M01 A3048 RMK A01 T00241010  RH  079%=      5-min Rain = 0
KTH1 080452Z 36004KT 02/M01 A3048 RMK A01 T00241011  RH  078%=      5-min Rain = 0
KTH1 080453Z 36006KT 02/M01 A3048 RMK A01 T00241010  RH  078%=      5-min Rain = 0
KTH1 080454Z 00005KT 02/M01 A3048 RMK A01 T00241010  RH  079%=      5-min Rain = 0
KTH1 080455Z 35006KT 02/M01 A3048 RMK A01 T00241010  RH  079%=      5-min Rain = 0
KTH1 080456Z 00005KT 02/M01 A3048 RMK A01 T00241010  RH  078%=      5-min Rain = 0
KTH1 080457Z 35004KT 02/M01 A3048 RMK A01 T00241009  RH  079%=      5-min Rain = 0
KTH1 080458Z 35007KT 02/M01 A3048 RMK A01 T00241008  RH  079%=      5-min Rain = 0
KTH1 080459Z 00006KT 02/M01 A3048 RMK A01 T00241009  RH  079%=      5-min Rain = 0
KTH1 080500Z 36007KT 02/M01 A3048 RMK A01 T00241009  RH  079%=      5-min Rain = 0
KTH1 080501Z 35006KT 02/M01 A3048 RMK A01 T00241010  RH  078%=      5-min Rain = 0
KTH1 080502Z 35008KT 02/M01 A3048 RMK A01 T00241009  RH  079%=      5-min Rain = 0
KTH1 080503Z 35007KT 02/M01 A3048 RMK A01 T00241010  RH  078%=      5-min Rain = 0
KTH1 080504Z 36004KT 03/M01 A3048 RMK A01 T00251009  RH  078%=      5-min Rain = 0
KTH1 080505Z 35005KT 03/M01 A3048 RMK A01 T00251008  RH  079%=      5-min Rain = 0
KTH1 080506Z 34004KT 03/M01 A3048 RMK A01 T00251007  RH  079%=      5-min Rain = 0
KTH1 080507Z 35006KT 03/M01 A3048 RMK A01 T00251007  RH  079%=      5-min Rain = 0
KTH1 080508Z 35007KT 03/M01 A3048 RMK A01 T00251008  RH  079%=      5-min Rain = 0
KTH1 080509Z 35005KT 03/M01 A3048 RMK A01 T00251008  RH  079%=      5-min Rain = 0
KTH1 080510Z 35005KT 03/M01 A3048 RMK A01 T00251008  RH  079%=      5-min Rain = 0
KTH1 080511Z 35004KT 03/M01 A3048 RMK A01 T00251008  RH  079%=      5-min Rain = 0
KTH1 080512Z 35006KT 03/M01 A3048 RMK A01 T00251007  RH  079%=      5-min Rain = 0
KTH1 080513Z 35006KT 03/M01 A3048 RMK A01 T00251008  RH  079%=      5-min Rain = 0
KTH1 080514Z 00005KT 03/M01 A3048 RMK A01 T00251008  RH  079%=      5-min Rain = 0
KTH1 080515Z 35006KT 03/M01 A3048 RMK A01 T00261007  RH  079%=      5-min Rain = 0
KTH1 080516Z 34005KT 03/M01 A3048 RMK A01 T00251008  RH  079%=      5-min Rain = 0
KTH1 080517Z 35004KT 03/M01 A3048 RMK A01 T00251008  RH  078%=      5-min Rain = 0
KTH1 080518Z 34004KT 03/M01 A3048 RMK A01 T00251007  RH  079%=      5-min Rain = 0
KTH1 080519Z 34004KT 03/M01 A3048 RMK A01 T00251006  RH  080%=      5-min Rain = 0
KTH1 080520Z 35005KT 03/M01 A3048 RMK A01 T00251006  RH  080%=      5-min Rain = 0
KTH1 080521Z 34004KT 03/M01 A3048 RMK A01 T00261007  RH  079%=      5-min Rain = 0
KTH1 080522Z 34005KT 03/M01 A3048 RMK A01 T00261006  RH  080%=      5-min Rain = 0
KTH1 080523Z 34005KT 03/M01 A3048 RMK A01 T00261006  RH  080%=      5-min Rain = 0
KTH1 080524Z 34007KT 03/M01 A3048 RMK A01 T00261006  RH  080%=      5-min Rain = 0
KTH1 080525Z 33005KT 03/M01 A3048 RMK A01 T00261007  RH  079%=      5-min Rain = 0
KTH1 080526Z 34004KT 03/M01 A3048 RMK A01 T00261005  RH  080%=      5-min Rain = 0
KTH1 080527Z 34003KT 03/M01 A3048 RMK A01 T00261005  RH  080%=      5-min Rain = 0
KTH1 080528Z 34005KT 03/M00 A3048 RMK A01 T00261004  RH  080%=      5-min Rain = 0
KTH1 080529Z 33004KT 03/M00 A3048 RMK A01 T00271004  RH  080%=      5-min Rain = 0
KTH1 080530Z 34004KT 03/M00 A3048 RMK A01 T00271003  RH  081%=      5-min Rain = 0
KTH1 080531Z 33004KT 03/M00 A3048 RMK A01 T00271003  RH  081%=      5-min Rain = 0
KTH1 080532Z 33005KT 03/M00 A3048 RMK A01 T00271004  RH  080%=      5-min Rain = 0
KTH1 080533Z 34005KT 03/M00 A3048 RMK A01 T00271004  RH  080%=      5-min Rain = 0
KTH1 080534Z 32004KT 03/M00 A3048 RMK A01 T00271004  RH  080%=      5-min Rain = 0
KTH1 080535Z 34004KT 03/M01 A3048 RMK A01 T00271005  RH  080%=      5-min Rain = 0
KTH1 080536Z 33005KT 03/M00 A3048 RMK A01 T00271003  RH  080%=      5-min Rain = 0
KTH1 080537Z 34006KT 03/M01 A3048 RMK A01 T00271005  RH  080%=      5-min Rain = 0
KTH1 080538Z 33003KT 03/M01 A3048 RMK A01 T00271006  RH  079%=      5-min Rain = 0
KTH1 080539Z 32004KT 03/M00 A3048 RMK A01 T00271004  RH  080%=      5-min Rain = 0
KTH1 080540Z 33005KT 03/M00 A3048 RMK A01 T00271003  RH  080%=      5-min Rain = 0
KTH1 080541Z 33004KT 03/M01 A3048 RMK A01 T00271006  RH  079%=      5-min Rain = 0
KTH1 080542Z 33005KT 03/M01 A3048 RMK A01 T00271006  RH  079%=      5-min Rain = 0
KTH1 080543Z 34004KT 03/M01 A3048 RMK A01 T00271005  RH  079%=      5-min Rain = 0
KTH1 080544Z 35005KT 03/M01 A3048 RMK A01 T00271005  RH  079%=      5-min Rain = 0
KTH1 080545Z 34003KT 03/M01 A3048 RMK A01 T00271007  RH  078%=      5-min Rain = 0
KTH1 080546Z 33004KT 03/M01 A3048 RMK A01 T00271005  RH  079%=      5-min Rain = 0
KTH1 080547Z 34005KT 03/M01 A3048 RMK A01 T00271005  RH  079%=      5-min Rain = 0
KTH1 080548Z 35006KT 03/M01 A3048 RMK A01 T00271007  RH  078%=      5-min Rain = 0
KTH1 080549Z 35005KT 03/M01 A3048 RMK A01 T00271007  RH  078%=      5-min Rain = 0
KTH1 080550Z 34003KT 03/M01 A3048 RMK A01 T00271006  RH  079%=      5-min Rain = 0
KTH1 080551Z 33004KT 03/M01 A3048 RMK A01 T00271005  RH  080%=      5-min Rain = 0
KTH1 080552Z 35005KT 03/M01 A3048 RMK A01 T00271006  RH  079%=      5-min Rain = 0
KTH1 080553Z 35005KT 03/M01 A3048 RMK A01 T00271006  RH  079%=      5-min Rain = 0
KTH1 080554Z 35006KT 03/M01 A3048 RMK A01 T00271008  RH  078%=      5-min Rain = 0
KTH1 080555Z 35005KT 03/M01 A3048 RMK A01 T00271008  RH  078%=      5-min Rain = 0
KTH1 080556Z 34004KT 03/M01 A3048 RMK A01 T00271006  RH  079%=      5-min Rain = 0
KTH1 080557Z 36005KT 03/M01 A3047 RMK A01 T00271005  RH  080%=      5-min Rain = 0
KTH1 080558Z 36005KT 03/M01 A3047 RMK A01 T00271005  RH  079%=      5-min Rain = 0
KTH1 080559Z 36008KT 03/M01 A3047 RMK A01 T00271007  RH  078%=      5-min Rain = 0

Page generated in 0.1217 seconds.